BAW745 VTBS-EGKK
Flight info
| Callsign | BAW745 |
|---|---|
| Flight time | N/A |
| Altitude | 39000 |
| Route | TARED1J TARED P646 BBN R460 LKN M890 JAL R594 SSB L626 DPN A589 BUTOP M875 DI N644 LEMOD A909 TUGTA B701 LARGI N701 LUSAL M11 REBLO UR317 TBN UM11 CRM UL746 ODERO DCT OPT DCT IRLOX DCT EMPOS DCT NEPOT DCT BEGLA DCT DEXIT DCT INBED DCT BOMBI DCT ADKUV DCT LENDO DCT SOGRI DCT DENUT L610 TEBRA TEBRA2G |
| Aircraft | B77W/H-SDE1E2E3FGHIJ2J3J4J5M1RWXY/LB1D1 |
Departure
| Time | 2026-05-03 21:45 |
|---|---|
| Airport | Suvarnabhumi Airport (VTBS) |
Arrival
| Time | N/A |
|---|---|
| Airport | London Gatwick Airport (EGKK) |
| Time | Latitude | Longitude | Altitude | Speed | Heading |
|---|---|---|---|---|---|
| 2026-05-03 21:07 | 13.68886 | 100.74667 | 18 ft | 0 kts | 283° |
| 2026-05-03 21:35 | 13.68886 | 100.74669 | 18 ft | 2 kts | 283° |
| 2026-05-03 21:35 | 13.68879 | 100.74692 | 20 ft | 3 kts | 291° |
| 2026-05-03 21:35 | 13.68871 | 100.74715 | 20 ft | 3 kts | 275° |
| 2026-05-03 21:35 | 13.68874 | 100.74736 | 20 ft | 3 kts | 243° |
| 2026-05-03 21:36 | 13.68888 | 100.74752 | 21 ft | 3 kts | 192° |
| 2026-05-03 21:36 | 13.68911 | 100.74755 | 20 ft | 2 kts | 194° |
| 2026-05-03 21:36 | 13.68916 | 100.74756 | 20 ft | 0 kts | 194° |
| 2026-05-03 21:39 | 13.68915 | 100.74756 | 18 ft | 1 kts | 194° |
| 2026-05-03 21:39 | 13.68858 | 100.74741 | 18 ft | 16 kts | 194° |
| 2026-05-03 21:39 | 13.68762 | 100.74717 | 18 ft | 12 kts | 194° |
| 2026-05-03 21:39 | 13.68691 | 100.74743 | 18 ft | 12 kts | 121° |
| 2026-05-03 21:40 | 13.68659 | 100.74844 | 18 ft | 19 kts | 104° |
| 2026-05-03 21:40 | 13.68618 | 100.75009 | 18 ft | 26 kts | 104° |
| 2026-05-03 21:40 | 13.68573 | 100.75188 | 18 ft | 26 kts | 104° |
| 2026-05-03 21:40 | 13.68527 | 100.75365 | 18 ft | 26 kts | 103° |
| 2026-05-03 21:41 | 13.68482 | 100.75539 | 18 ft | 21 kts | 105° |
| 2026-05-03 21:41 | 13.68521 | 100.75637 | 18 ft | 17 kts | 23° |
| 2026-05-03 21:41 | 13.68636 | 100.75670 | 18 ft | 17 kts | 15° |
| 2026-05-03 21:41 | 13.68753 | 100.75700 | 18 ft | 18 kts | 14° |
| 2026-05-03 21:42 | 13.68902 | 100.75740 | 18 ft | 26 kts | 14° |
| 2026-05-03 21:42 | 13.69100 | 100.75792 | 18 ft | 30 kts | 14° |
| 2026-05-03 21:42 | 13.69226 | 100.75855 | 17 ft | 19 kts | 77° |
| 2026-05-03 21:42 | 13.69200 | 100.75990 | 17 ft | 20 kts | 108° |
| 2026-05-03 21:43 | 13.69110 | 100.76082 | 17 ft | 12 kts | 174° |
| 2026-05-03 21:43 | 13.69086 | 100.76078 | 17 ft | 0 kts | 193° |
| 2026-05-03 21:44 | 13.68974 | 100.76050 | 19 ft | 54 kts | 195° |
| 2026-05-03 21:45 | 13.68303 | 100.75874 | 18 ft | 143 kts | 194° |
| 2026-05-03 21:45 | 13.67072 | 100.75548 | 29 ft | 222 kts | 195° |
| 2026-05-03 21:45 | 13.65508 | 100.75100 | 883 ft | 234 kts | 195° |
| 2026-05-03 21:45 | 13.63955 | 100.74675 | 2087 ft | 231 kts | 194° |
| 2026-05-03 21:46 | 13.62347 | 100.74252 | 2481 ft | 248 kts | 194° |
| 2026-05-03 21:46 | 13.60654 | 100.73814 | 3065 ft | 254 kts | 194° |
| 2026-05-03 21:46 | 13.58959 | 100.73288 | 3583 ft | 262 kts | 207° |
| 2026-05-03 21:46 | 13.57496 | 100.72150 | 4079 ft | 266 kts | 223° |
| 2026-05-03 21:47 | 13.56146 | 100.70802 | 4745 ft | 271 kts | 224° |
| 2026-05-03 21:47 | 13.54776 | 100.69444 | 5405 ft | 275 kts | 223° |
| 2026-05-03 21:47 | 13.53412 | 100.68064 | 6010 ft | 278 kts | 231° |
| 2026-05-03 21:47 | 13.52553 | 100.66266 | 6443 ft | 286 kts | 262° |
| 2026-05-03 21:48 | 13.52651 | 100.64241 | 7087 ft | 283 kts | 283° |
| 2026-05-03 21:48 | 13.53142 | 100.62258 | 7595 ft | 290 kts | 284° |
| 2026-05-03 21:48 | 13.53672 | 100.60242 | 8212 ft | 290 kts | 290° |
| 2026-05-03 21:48 | 13.54700 | 100.58505 | 8691 ft | 295 kts | 318° |
| 2026-05-03 21:49 | 13.56452 | 100.57432 | 9243 ft | 297 kts | 345° |
| 2026-05-03 21:49 | 13.58489 | 100.57179 | 9772 ft | 295 kts | 1° |
| 2026-05-03 21:49 | 13.60570 | 100.57242 | 9856 ft | 304 kts | 2° |
| 2026-05-03 21:49 | 13.62697 | 100.57324 | 9856 ft | 305 kts | 2° |
| 2026-05-03 21:50 | 13.64107 | 100.57374 | 9856 ft | 304 kts | 2° |
| 2026-05-03 21:50 | 13.66894 | 100.57460 | 9858 ft | 301 kts | 2° |
| 2026-05-03 21:50 | 13.68975 | 100.57517 | 9847 ft | 298 kts | 2° |
| 2026-05-03 21:50 | 13.71048 | 100.57574 | 9936 ft | 300 kts | 2° |
| 2026-05-03 21:51 | 13.72452 | 100.57612 | 10131 ft | 309 kts | 2° |
| 2026-05-03 21:51 | 13.74684 | 100.57671 | 10265 ft | 331 kts | 1° |
| 2026-05-03 21:51 | 13.77059 | 100.57734 | 10433 ft | 351 kts | 1° |
| 2026-05-03 21:51 | 13.79561 | 100.57735 | 10542 ft | 367 kts | 353° |
| 2026-05-03 21:52 | 13.82025 | 100.56910 | 10779 ft | 381 kts | 328° |
| 2026-05-03 21:52 | 13.84008 | 100.55129 | 11284 ft | 387 kts | 307° |
| 2026-05-03 21:52 | 13.85457 | 100.52779 | 11768 ft | 390 kts | 300° |
| 2026-05-03 21:52 | 13.86843 | 100.50349 | 12348 ft | 394 kts | 300° |
| 2026-05-03 21:53 | 13.88241 | 100.47952 | 13050 ft | 395 kts | 301° |
| 2026-05-03 21:53 | 13.89682 | 100.45526 | 13724 ft | 398 kts | 301° |
| 2026-05-03 21:53 | 13.91138 | 100.43089 | 14219 ft | 402 kts | 301° |
| 2026-05-03 21:53 | 13.92619 | 100.40614 | 14748 ft | 406 kts | 301° |
| 2026-05-03 21:54 | 13.94106 | 100.38128 | 15277 ft | 410 kts | 301° |
| 2026-05-03 21:54 | 13.95613 | 100.35605 | 15810 ft | 413 kts | 301° |
| 2026-05-03 21:54 | 13.97106 | 100.33105 | 16337 ft | 417 kts | 301° |
| 2026-05-03 21:54 | 13.98566 | 100.30502 | 16836 ft | 420 kts | 298° |
| 2026-05-03 21:55 | 13.99953 | 100.27831 | 17341 ft | 424 kts | 297° |
| 2026-05-03 21:55 | 14.01323 | 100.25123 | 17852 ft | 427 kts | 297° |
| 2026-05-03 21:55 | 14.02703 | 100.22393 | 18329 ft | 431 kts | 297° |
| 2026-05-03 21:55 | 14.04080 | 100.19686 | 18785 ft | 433 kts | 297° |
| 2026-05-03 21:56 | 14.05493 | 100.16930 | 19258 ft | 435 kts | 297° |
| 2026-05-03 21:56 | 14.06918 | 100.14165 | 19741 ft | 436 kts | 297° |
| 2026-05-03 21:56 | 14.08355 | 100.11382 | 20209 ft | 438 kts | 297° |
| 2026-05-03 21:56 | 14.09775 | 100.08635 | 20658 ft | 441 kts | 297° |
| 2026-05-03 21:57 | 14.11227 | 100.05825 | 21085 ft | 444 kts | 297° |
| 2026-05-03 21:57 | 14.12686 | 100.03000 | 21527 ft | 446 kts | 297° |
| 2026-05-03 21:57 | 14.14132 | 100.00197 | 21956 ft | 448 kts | 297° |
| 2026-05-03 21:57 | 14.15600 | 99.97352 | 22389 ft | 451 kts | 297° |
| 2026-05-03 21:58 | 14.17082 | 99.94478 | 22811 ft | 453 kts | 297° |
| 2026-05-03 21:58 | 14.18554 | 99.91635 | 23231 ft | 455 kts | 298° |
| 2026-05-03 21:58 | 14.20198 | 99.88823 | 23582 ft | 458 kts | 302° |
| 2026-05-03 21:58 | 14.21985 | 99.86083 | 23921 ft | 460 kts | 303° |
| 2026-05-03 21:59 | 14.23815 | 99.83371 | 24265 ft | 462 kts | 304° |
| 2026-05-03 21:59 | 14.25649 | 99.80648 | 24609 ft | 463 kts | 303° |
| 2026-05-03 21:59 | 14.27475 | 99.77899 | 24955 ft | 465 kts | 303° |
| 2026-05-03 21:59 | 14.29295 | 99.75120 | 25264 ft | 467 kts | 303° |
| 2026-05-03 22:00 | 14.31082 | 99.72367 | 25583 ft | 469 kts | 302° |
| 2026-05-03 22:00 | 14.32893 | 99.69563 | 25887 ft | 470 kts | 302° |
| 2026-05-03 22:00 | 14.34711 | 99.66743 | 26205 ft | 472 kts | 302° |
| 2026-05-03 22:00 | 14.36535 | 99.63916 | 26515 ft | 474 kts | 302° |
| 2026-05-03 22:01 | 14.38369 | 99.61074 | 26808 ft | 476 kts | 302° |
| 2026-05-03 22:01 | 14.40186 | 99.58258 | 27095 ft | 477 kts | 302° |
| 2026-05-03 22:01 | 14.42030 | 99.55402 | 27377 ft | 479 kts | 302° |
| 2026-05-03 22:01 | 14.43882 | 99.52526 | 27670 ft | 481 kts | 301° |
| 2026-05-03 22:02 | 14.45615 | 99.49564 | 27789 ft | 484 kts | 298° |
| 2026-05-03 22:02 | 14.47203 | 99.46480 | 27827 ft | 483 kts | 296° |
| 2026-05-03 22:02 | 14.48719 | 99.43357 | 27872 ft | 489 kts | 295° |
| 2026-05-03 22:02 | 14.50217 | 99.40230 | 27879 ft | 495 kts | 295° |
| 2026-05-03 22:03 | 14.51765 | 99.37028 | 27884 ft | 499 kts | 295° |
| 2026-05-03 22:03 | 14.53339 | 99.33821 | 27888 ft | 500 kts | 296° |
| 2026-05-03 22:03 | 14.54925 | 99.30630 | 27876 ft | 499 kts | 296° |
| 2026-05-03 22:03 | 14.56508 | 99.27475 | 27879 ft | 499 kts | 296° |
| 2026-05-03 22:04 | 14.58114 | 99.24290 | 27887 ft | 498 kts | 296° |
| 2026-05-03 22:04 | 14.59716 | 99.21116 | 27886 ft | 498 kts | 296° |
| 2026-05-03 22:04 | 14.61315 | 99.17944 | 27887 ft | 498 kts | 296° |
| 2026-05-03 22:04 | 14.62914 | 99.14769 | 27893 ft | 497 kts | 296° |
| 2026-05-03 22:05 | 14.64493 | 99.11632 | 27895 ft | 497 kts | 296° |
| 2026-05-03 22:05 | 14.66083 | 99.08467 | 27895 ft | 497 kts | 296° |
| 2026-05-03 22:05 | 14.67681 | 99.05283 | 27898 ft | 497 kts | 296° |
| 2026-05-03 22:05 | 14.69276 | 99.02105 | 27900 ft | 497 kts | 296° |
| 2026-05-03 22:06 | 14.70868 | 98.98931 | 27908 ft | 497 kts | 296° |
| 2026-05-03 22:06 | 14.72462 | 98.95751 | 27912 ft | 497 kts | 296° |
| 2026-05-03 22:06 | 14.74037 | 98.92610 | 27908 ft | 498 kts | 296° |
| 2026-05-03 22:06 | 14.75633 | 98.89424 | 27906 ft | 498 kts | 296° |
| 2026-05-03 22:07 | 14.77225 | 98.86245 | 27909 ft | 498 kts | 296° |
| 2026-05-03 22:07 | 14.78818 | 98.83062 | 27907 ft | 498 kts | 296° |
| 2026-05-03 22:07 | 14.80416 | 98.79871 | 27913 ft | 498 kts | 296° |
| 2026-05-03 22:07 | 14.81991 | 98.76722 | 27909 ft | 498 kts | 296° |
| 2026-05-03 22:08 | 14.83579 | 98.73545 | 27909 ft | 498 kts | 296° |
| 2026-05-03 22:08 | 14.85173 | 98.70356 | 27940 ft | 500 kts | 296° |
| 2026-05-03 22:08 | 14.86775 | 98.67148 | 28130 ft | 501 kts | 296° |
| 2026-05-03 22:08 | 14.88368 | 98.63959 | 28487 ft | 498 kts | 296° |
| 2026-05-03 22:09 | 14.89955 | 98.60780 | 28863 ft | 495 kts | 296° |
| 2026-05-03 22:09 | 14.91534 | 98.57615 | 29187 ft | 494 kts | 296° |
| 2026-05-03 22:09 | 14.93096 | 98.54484 | 29471 ft | 494 kts | 296° |
| 2026-05-03 22:10 | 14.96253 | 98.48149 | 30008 ft | 493 kts | 296° |
| 2026-05-03 22:10 | 14.97804 | 98.45035 | 30272 ft | 492 kts | 296° |
| 2026-05-03 22:10 | 14.99371 | 98.41887 | 30565 ft | 490 kts | 296° |
| 2026-05-03 22:10 | 15.00930 | 98.38753 | 30835 ft | 489 kts | 296° |
| 2026-05-03 22:11 | 15.02492 | 98.35614 | 31086 ft | 489 kts | 295° |
| 2026-05-03 22:11 | 15.04046 | 98.32488 | 31327 ft | 488 kts | 295° |
| 2026-05-03 22:11 | 15.05581 | 98.29399 | 31570 ft | 487 kts | 295° |
| 2026-05-03 22:11 | 15.07132 | 98.26277 | 31829 ft | 487 kts | 295° |
| 2026-05-03 22:12 | 15.08681 | 98.23157 | 32095 ft | 485 kts | 295° |
| 2026-05-03 22:12 | 15.10220 | 98.20055 | 32333 ft | 484 kts | 295° |
| 2026-05-03 22:12 | 15.11734 | 98.16968 | 32564 ft | 484 kts | 295° |
| 2026-05-03 22:12 | 15.13245 | 98.13856 | 32806 ft | 483 kts | 295° |
| 2026-05-03 22:13 | 15.14751 | 98.10745 | 33048 ft | 483 kts | 294° |
| 2026-05-03 22:13 | 15.16256 | 98.07633 | 33284 ft | 482 kts | 294° |
| 2026-05-03 22:13 | 15.17746 | 98.04553 | 33536 ft | 480 kts | 294° |
| 2026-05-03 22:13 | 15.19238 | 98.01474 | 33866 ft | 477 kts | 294° |
| 2026-05-03 22:14 | 15.20724 | 97.98408 | 34126 ft | 475 kts | 294° |
| 2026-05-03 22:14 | 15.22210 | 97.95341 | 34279 ft | 476 kts | 294° |
| 2026-05-03 22:14 | 15.23698 | 97.92270 | 34343 ft | 478 kts | 294° |
| 2026-05-03 22:15 | 15.26692 | 97.86085 | 34551 ft | 480 kts | 294° |
| 2026-05-03 22:15 | 15.28192 | 97.82985 | 34655 ft | 481 kts | 295° |
| 2026-05-03 22:15 | 15.29672 | 97.79923 | 34752 ft | 482 kts | 295° |
| 2026-05-03 22:16 | 15.32687 | 97.73685 | 34916 ft | 484 kts | 295° |
| 2026-05-03 22:16 | 15.35708 | 97.67428 | 35090 ft | 486 kts | 295° |
| 2026-05-03 22:17 | 15.38738 | 97.61148 | 35222 ft | 487 kts | 295° |
| 2026-05-03 22:17 | 15.41754 | 97.54889 | 35368 ft | 488 kts | 295° |
| 2026-05-03 22:18 | 15.44800 | 97.48575 | 35481 ft | 490 kts | 295° |
| 2026-05-03 22:18 | 15.47958 | 97.42324 | 35603 ft | 491 kts | 296° |
| 2026-05-03 22:19 | 15.51190 | 97.36059 | 35698 ft | 493 kts | 296° |
| 2026-05-03 22:19 | 15.54424 | 97.29759 | 35802 ft | 494 kts | 296° |
| 2026-05-03 22:20 | 15.57626 | 97.23481 | 35880 ft | 495 kts | 296° |
| 2026-05-03 22:20 | 15.60847 | 97.17147 | 35966 ft | 495 kts | 296° |
| 2026-05-03 22:21 | 15.64060 | 97.10824 | 36037 ft | 496 kts | 296° |
| 2026-05-03 22:21 | 15.67280 | 97.04483 | 36126 ft | 497 kts | 296° |
| 2026-05-03 22:22 | 15.70496 | 96.98145 | 36166 ft | 498 kts | 296° |
| 2026-05-03 22:22 | 15.73732 | 96.91762 | 36232 ft | 498 kts | 296° |
| 2026-05-03 22:23 | 15.76960 | 96.85388 | 36293 ft | 499 kts | 296° |
| 2026-05-03 22:23 | 15.80178 | 96.79030 | 36330 ft | 499 kts | 296° |
| 2026-05-03 22:24 | 15.83399 | 96.72659 | 36396 ft | 500 kts | 296° |
| 2026-05-03 22:24 | 15.86637 | 96.66251 | 36435 ft | 500 kts | 296° |
| 2026-05-03 22:25 | 15.89849 | 96.59886 | 36487 ft | 500 kts | 296° |
| 2026-05-03 22:25 | 15.93086 | 96.53467 | 36514 ft | 500 kts | 296° |
| 2026-05-03 22:26 | 15.96305 | 96.47077 | 36561 ft | 501 kts | 296° |
| 2026-05-03 22:26 | 15.99537 | 96.40655 | 36586 ft | 501 kts | 296° |
| 2026-05-03 22:27 | 16.02778 | 96.34211 | 36619 ft | 501 kts | 296° |
| 2026-05-03 22:27 | 16.05986 | 96.27825 | 36655 ft | 501 kts | 296° |
| 2026-05-03 22:28 | 16.09221 | 96.21381 | 36683 ft | 501 kts | 296° |
| 2026-05-03 22:28 | 16.12448 | 96.14946 | 36711 ft | 501 kts | 296° |
| 2026-05-03 22:29 | 16.15651 | 96.08553 | 36731 ft | 501 kts | 296° |
| 2026-05-03 22:29 | 16.18880 | 96.02103 | 36759 ft | 501 kts | 296° |
| 2026-05-03 22:30 | 16.22086 | 95.95692 | 36782 ft | 501 kts | 296° |
| 2026-05-03 22:30 | 16.25301 | 95.89256 | 36814 ft | 501 kts | 296° |
| 2026-05-03 22:31 | 16.28524 | 95.82800 | 36825 ft | 501 kts | 296° |
| 2026-05-03 22:31 | 16.31730 | 95.76372 | 36851 ft | 501 kts | 296° |
| 2026-05-03 22:32 | 16.34940 | 95.69929 | 36865 ft | 501 kts | 296° |
| 2026-05-03 22:32 | 16.38135 | 95.63511 | 36881 ft | 501 kts | 296° |
| 2026-05-03 22:33 | 16.41348 | 95.57050 | 36918 ft | 501 kts | 296° |
| 2026-05-03 22:33 | 16.44532 | 95.50641 | 36933 ft | 500 kts | 296° |
| 2026-05-03 22:34 | 16.47732 | 95.44194 | 36954 ft | 500 kts | 296° |
| 2026-05-03 22:34 | 16.50931 | 95.37744 | 36978 ft | 500 kts | 296° |
| 2026-05-03 22:35 | 16.54128 | 95.31290 | 37000 ft | 500 kts | 296° |
| 2026-05-03 22:35 | 16.57305 | 95.24871 | 37019 ft | 500 kts | 296° |
| 2026-05-03 22:36 | 16.60492 | 95.18426 | 37033 ft | 500 kts | 296° |
| 2026-05-03 22:36 | 16.63655 | 95.12023 | 37056 ft | 500 kts | 296° |
| 2026-05-03 22:37 | 16.66841 | 95.05567 | 37083 ft | 499 kts | 296° |
| 2026-05-03 22:37 | 16.70022 | 94.99114 | 37101 ft | 499 kts | 295° |
| 2026-05-03 22:38 | 16.73179 | 94.92704 | 37127 ft | 499 kts | 295° |
| 2026-05-03 22:38 | 16.75820 | 94.87338 | 37146 ft | 499 kts | 295° |
| 2026-05-03 22:39 | 16.78993 | 94.80885 | 37168 ft | 499 kts | 295° |
| 2026-05-03 22:39 | 16.82606 | 94.74676 | 37203 ft | 501 kts | 305° |
| 2026-05-03 22:40 | 16.86968 | 94.69057 | 37222 ft | 501 kts | 307° |
| 2026-05-03 22:40 | 16.91416 | 94.63421 | 37240 ft | 501 kts | 307° |
| 2026-05-03 22:41 | 16.95824 | 94.57781 | 37269 ft | 500 kts | 307° |
| 2026-05-03 22:41 | 17.00181 | 94.52163 | 37300 ft | 500 kts | 307° |
| 2026-05-03 22:42 | 17.04559 | 94.46502 | 37322 ft | 500 kts | 307° |
| 2026-05-03 22:42 | 17.08917 | 94.40864 | 37343 ft | 499 kts | 307° |
| 2026-05-03 22:43 | 17.13282 | 94.35216 | 37376 ft | 498 kts | 307° |
| 2026-05-03 22:43 | 17.17639 | 94.29573 | 37395 ft | 498 kts | 307° |
| 2026-05-03 22:44 | 17.21960 | 94.23973 | 37417 ft | 497 kts | 307° |
| 2026-05-03 22:44 | 17.26303 | 94.18339 | 37438 ft | 496 kts | 307° |
| 2026-05-03 22:45 | 17.30626 | 94.12727 | 37470 ft | 496 kts | 307° |
| 2026-05-03 22:45 | 17.34960 | 94.07095 | 37495 ft | 495 kts | 307° |
| 2026-05-03 22:46 | 17.39280 | 94.01477 | 37526 ft | 494 kts | 307° |
| 2026-05-03 22:46 | 17.43563 | 93.95902 | 37538 ft | 494 kts | 307° |
| 2026-05-03 22:47 | 17.47872 | 93.90290 | 37537 ft | 494 kts | 307° |
| 2026-05-03 22:47 | 17.52156 | 93.84704 | 37553 ft | 493 kts | 307° |
| 2026-05-03 22:48 | 17.56462 | 93.79084 | 37367 ft | 497 kts | 307° |
| 2026-05-03 22:48 | 17.60786 | 93.73438 | 37296 ft | 499 kts | 307° |
| 2026-05-03 22:49 | 17.65137 | 93.67752 | 37311 ft | 499 kts | 307° |
| 2026-05-03 22:49 | 17.69490 | 93.62058 | 37311 ft | 499 kts | 307° |
| 2026-05-03 22:50 | 17.73824 | 93.56383 | 37343 ft | 499 kts | 307° |
| 2026-05-03 22:50 | 17.78150 | 93.50714 | 37355 ft | 500 kts | 307° |
| 2026-05-03 22:51 | 17.82502 | 93.45007 | 37373 ft | 500 kts | 307° |
| 2026-05-03 22:51 | 17.86845 | 93.39305 | 37390 ft | 500 kts | 307° |
| 2026-05-03 22:52 | 17.91192 | 93.33594 | 37404 ft | 499 kts | 307° |
| 2026-05-03 22:52 | 17.95507 | 93.27920 | 37443 ft | 499 kts | 307° |
| 2026-05-03 22:53 | 17.99825 | 93.22237 | 37465 ft | 499 kts | 307° |
| 2026-05-03 22:53 | 18.04171 | 93.16513 | 37487 ft | 499 kts | 307° |
| 2026-05-03 22:54 | 18.08479 | 93.10833 | 37507 ft | 498 kts | 307° |
| 2026-05-03 22:54 | 18.12802 | 93.05129 | 37530 ft | 498 kts | 307° |
| 2026-05-03 22:55 | 18.17124 | 92.99421 | 37553 ft | 497 kts | 307° |
| 2026-05-03 22:55 | 18.21409 | 92.93756 | 37571 ft | 497 kts | 307° |
| 2026-05-03 22:56 | 18.25716 | 92.88057 | 37578 ft | 497 kts | 307° |
| 2026-05-03 22:56 | 18.30003 | 92.82380 | 37576 ft | 497 kts | 307° |
| 2026-05-03 22:57 | 18.34310 | 92.76671 | 37589 ft | 497 kts | 307° |
| 2026-05-03 22:57 | 18.38585 | 92.71000 | 37589 ft | 497 kts | 307° |
| 2026-05-03 22:58 | 18.42886 | 92.65290 | 37596 ft | 497 kts | 307° |
| 2026-05-03 22:58 | 18.47185 | 92.59576 | 37587 ft | 497 kts | 307° |
| 2026-05-03 22:59 | 18.51476 | 92.53869 | 37608 ft | 496 kts | 306° |
| 2026-05-03 22:59 | 18.55745 | 92.48185 | 37634 ft | 496 kts | 306° |
| 2026-05-03 23:00 | 18.60038 | 92.42464 | 37625 ft | 496 kts | 306° |
| 2026-05-03 23:00 | 18.64308 | 92.36768 | 37639 ft | 496 kts | 306° |
| 2026-05-03 23:01 | 18.68584 | 92.31059 | 37643 ft | 496 kts | 306° |
| 2026-05-03 23:01 | 18.72842 | 92.25370 | 37662 ft | 495 kts | 306° |
| 2026-05-03 23:02 | 18.77120 | 92.19648 | 37661 ft | 495 kts | 306° |
| 2026-05-03 23:02 | 18.81361 | 92.13971 | 37684 ft | 494 kts | 306° |
| 2026-05-03 23:03 | 18.85626 | 92.08255 | 37679 ft | 494 kts | 306° |
| 2026-05-03 23:03 | 18.89865 | 92.02568 | 37693 ft | 494 kts | 306° |
| 2026-05-03 23:04 | 18.94102 | 91.96862 | 37703 ft | 493 kts | 306° |
| 2026-05-03 23:04 | 18.98308 | 91.91112 | 37715 ft | 493 kts | 306° |
| 2026-05-03 23:05 | 19.02472 | 91.85397 | 37732 ft | 492 kts | 306° |
| 2026-05-03 23:05 | 19.06662 | 91.79649 | 37746 ft | 492 kts | 306° |
| 2026-05-03 23:06 | 19.10818 | 91.73950 | 37738 ft | 492 kts | 306° |
| 2026-05-03 23:06 | 19.15002 | 91.68209 | 37755 ft | 491 kts | 306° |
| 2026-05-03 23:07 | 19.19180 | 91.62471 | 37761 ft | 491 kts | 306° |
| 2026-05-03 23:07 | 19.23320 | 91.56778 | 37752 ft | 491 kts | 306° |
| 2026-05-03 23:08 | 19.27491 | 91.51038 | 37746 ft | 491 kts | 306° |
| 2026-05-03 23:08 | 19.31659 | 91.45297 | 37756 ft | 490 kts | 305° |
| 2026-05-03 23:09 | 19.35801 | 91.39586 | 37739 ft | 491 kts | 305° |
| 2026-05-03 23:09 | 19.39967 | 91.33836 | 37748 ft | 490 kts | 305° |
| 2026-05-03 23:10 | 19.44094 | 91.28136 | 37752 ft | 490 kts | 305° |
| 2026-05-03 23:10 | 19.48258 | 91.22379 | 37744 ft | 490 kts | 305° |
| 2026-05-03 23:11 | 19.52387 | 91.16665 | 37746 ft | 490 kts | 305° |
| 2026-05-03 23:11 | 19.56518 | 91.10942 | 37765 ft | 489 kts | 305° |
| 2026-05-03 23:12 | 19.60636 | 91.05232 | 37764 ft | 489 kts | 305° |
| 2026-05-03 23:12 | 19.64771 | 90.99494 | 37768 ft | 489 kts | 305° |
| 2026-05-03 23:13 | 19.68911 | 90.93742 | 37765 ft | 489 kts | 305° |
| 2026-05-03 23:13 | 19.73015 | 90.88034 | 37786 ft | 488 kts | 305° |
| 2026-05-03 23:14 | 19.77157 | 90.82270 | 37785 ft | 488 kts | 305° |
| 2026-05-03 23:14 | 19.81255 | 90.76559 | 37779 ft | 488 kts | 305° |
| 2026-05-03 23:15 | 19.85376 | 90.70813 | 37778 ft | 488 kts | 305° |
| 2026-05-03 23:15 | 19.89496 | 90.65062 | 37771 ft | 488 kts | 305° |
| 2026-05-03 23:16 | 19.93594 | 90.59336 | 37759 ft | 489 kts | 305° |
| 2026-05-03 23:16 | 19.97717 | 90.53570 | 37725 ft | 489 kts | 305° |
| 2026-05-03 23:17 | 20.01813 | 90.47835 | 37749 ft | 489 kts | 305° |
| 2026-05-03 23:17 | 20.05939 | 90.42053 | 37727 ft | 489 kts | 305° |
| 2026-05-03 23:18 | 20.10036 | 90.36306 | 37714 ft | 490 kts | 305° |
| 2026-05-03 23:18 | 20.14165 | 90.30508 | 37716 ft | 490 kts | 305° |
| 2026-05-03 23:19 | 20.18261 | 90.24752 | 37713 ft | 490 kts | 305° |
| 2026-05-03 23:19 | 20.22380 | 90.18957 | 37700 ft | 491 kts | 305° |
| 2026-05-03 23:20 | 20.26510 | 90.13140 | 37725 ft | 490 kts | 305° |
| 2026-05-03 23:20 | 20.30607 | 90.07365 | 37714 ft | 491 kts | 305° |
| 2026-05-03 23:21 | 20.34729 | 90.01548 | 37720 ft | 491 kts | 305° |
| 2026-05-03 23:21 | 20.38819 | 89.95772 | 37768 ft | 491 kts | 305° |
| 2026-05-03 23:22 | 20.44977 | 89.87063 | 37771 ft | 490 kts | 305° |
| 2026-05-03 23:22 | 20.49093 | 89.81233 | 37780 ft | 490 kts | 305° |
| 2026-05-03 23:23 | 20.53195 | 89.75419 | 37787 ft | 490 kts | 305° |
| 2026-05-03 23:23 | 20.57288 | 89.69612 | 37807 ft | 490 kts | 305° |
| 2026-05-03 23:24 | 20.61370 | 89.63814 | 37804 ft | 490 kts | 305° |
| 2026-05-03 23:24 | 20.65476 | 89.57976 | 37836 ft | 490 kts | 305° |
| 2026-05-03 23:25 | 20.69567 | 89.52154 | 37829 ft | 490 kts | 305° |
| 2026-05-03 23:25 | 20.73631 | 89.46364 | 37853 ft | 489 kts | 305° |
| 2026-05-03 23:26 | 20.77730 | 89.40517 | 37850 ft | 489 kts | 305° |
| 2026-05-03 23:26 | 20.81778 | 89.34738 | 37867 ft | 489 kts | 305° |
| 2026-05-03 23:27 | 20.85870 | 89.28889 | 37875 ft | 489 kts | 305° |
| 2026-05-03 23:27 | 20.89918 | 89.23097 | 37885 ft | 488 kts | 305° |
| 2026-05-03 23:28 | 20.93302 | 89.18191 | 37880 ft | 488 kts | 303° |
| 2026-05-03 23:28 | 20.97073 | 89.12203 | 37876 ft | 487 kts | 301° |
| 2026-05-03 23:29 | 21.00803 | 89.06131 | 37892 ft | 487 kts | 302° |
| 2026-05-03 23:29 | 21.04550 | 89.00104 | 37895 ft | 487 kts | 302° |
| 2026-05-03 23:30 | 21.08333 | 88.94065 | 37892 ft | 487 kts | 302° |
| 2026-05-03 23:30 | 21.12094 | 88.88065 | 37869 ft | 487 kts | 302° |
| 2026-05-03 23:31 | 21.15877 | 88.82017 | 37870 ft | 487 kts | 302° |
| 2026-05-03 23:31 | 21.19629 | 88.76012 | 37861 ft | 488 kts | 302° |
| 2026-05-03 23:32 | 21.23403 | 88.69962 | 37885 ft | 487 kts | 302° |
| 2026-05-03 23:32 | 21.27152 | 88.63947 | 37869 ft | 487 kts | 302° |
| 2026-05-03 23:33 | 21.30933 | 88.57873 | 37879 ft | 487 kts | 302° |
| 2026-05-03 23:33 | 21.34683 | 88.51851 | 37863 ft | 488 kts | 302° |
| 2026-05-03 23:34 | 21.38518 | 88.45824 | 37864 ft | 488 kts | 303° |
| 2026-05-03 23:34 | 21.42366 | 88.39823 | 37866 ft | 488 kts | 303° |
| 2026-05-03 23:35 | 21.46192 | 88.33839 | 37855 ft | 488 kts | 303° |
| 2026-05-03 23:35 | 21.50040 | 88.27797 | 37861 ft | 488 kts | 302° |
| 2026-05-03 23:36 | 21.53861 | 88.21785 | 37859 ft | 488 kts | 302° |
| 2026-05-03 23:36 | 21.57674 | 88.15780 | 37870 ft | 488 kts | 302° |
| 2026-05-03 23:37 | 21.61515 | 88.09724 | 37867 ft | 489 kts | 302° |
| 2026-05-03 23:37 | 21.65325 | 88.03712 | 37878 ft | 489 kts | 302° |
| 2026-05-03 23:38 | 21.69167 | 87.97643 | 37882 ft | 489 kts | 302° |
| 2026-05-03 23:38 | 21.72974 | 87.91621 | 37886 ft | 489 kts | 302° |
| 2026-05-03 23:39 | 21.76800 | 87.85563 | 37892 ft | 489 kts | 302° |
| 2026-05-03 23:39 | 21.80630 | 87.79492 | 37892 ft | 489 kts | 302° |
| 2026-05-03 23:40 | 21.84436 | 87.73452 | 37912 ft | 489 kts | 302° |
| 2026-05-03 23:40 | 21.88239 | 87.67411 | 37910 ft | 489 kts | 302° |
| 2026-05-03 23:41 | 21.92060 | 87.61334 | 37939 ft | 489 kts | 302° |
| 2026-05-03 23:41 | 21.95870 | 87.55268 | 37941 ft | 489 kts | 302° |
| 2026-05-03 23:42 | 21.99691 | 87.49177 | 37947 ft | 489 kts | 302° |
| 2026-05-03 23:42 | 22.03482 | 87.43129 | 37971 ft | 489 kts | 302° |
| 2026-05-03 23:43 | 22.07287 | 87.37049 | 37961 ft | 489 kts | 302° |
| 2026-05-03 23:43 | 22.11068 | 87.31002 | 37997 ft | 489 kts | 302° |
| 2026-05-03 23:44 | 22.14876 | 87.24904 | 38013 ft | 488 kts | 302° |
| 2026-05-03 23:44 | 22.18668 | 87.18826 | 38019 ft | 488 kts | 302° |
| 2026-05-03 23:45 | 22.22472 | 87.12721 | 38008 ft | 489 kts | 302° |
| 2026-05-03 23:45 | 22.26239 | 87.06669 | 38063 ft | 488 kts | 302° |
| 2026-05-03 23:46 | 22.30031 | 87.00570 | 38053 ft | 488 kts | 302° |
| 2026-05-03 23:46 | 22.33817 | 86.94474 | 38067 ft | 489 kts | 302° |
| 2026-05-03 23:47 | 22.37614 | 86.88351 | 38071 ft | 489 kts | 302° |
| 2026-05-03 23:47 | 22.41397 | 86.82245 | 38069 ft | 489 kts | 302° |
| 2026-05-03 23:48 | 22.45159 | 86.76167 | 38049 ft | 489 kts | 302° |
| 2026-05-03 23:48 | 22.48945 | 86.70042 | 38064 ft | 489 kts | 301° |
| 2026-05-03 23:49 | 22.52729 | 86.63914 | 38054 ft | 490 kts | 301° |
| 2026-05-03 23:49 | 22.56494 | 86.57808 | 38092 ft | 489 kts | 301° |
| 2026-05-03 23:50 | 22.59659 | 86.52670 | 38100 ft | 489 kts | 301° |
| 2026-05-03 23:50 | 22.64050 | 86.45535 | 38124 ft | 489 kts | 301° |
| 2026-05-03 23:51 | 22.67803 | 86.39428 | 38144 ft | 489 kts | 301° |
| 2026-05-03 23:51 | 22.71576 | 86.33280 | 38149 ft | 489 kts | 301° |
| 2026-05-03 23:52 | 22.75347 | 86.27128 | 38173 ft | 489 kts | 301° |
| 2026-05-03 23:52 | 22.79093 | 86.21012 | 38179 ft | 489 kts | 301° |
| 2026-05-03 23:53 | 22.83125 | 86.15053 | 38192 ft | 491 kts | 309° |
| 2026-05-03 23:53 | 22.87675 | 86.09575 | 38171 ft | 492 kts | 309° |
| 2026-05-03 23:54 | 22.92293 | 86.04059 | 38189 ft | 492 kts | 309° |
| 2026-05-03 23:54 | 22.96849 | 85.98566 | 38198 ft | 492 kts | 309° |
| 2026-05-03 23:55 | 23.01405 | 85.93034 | 38204 ft | 492 kts | 308° |
| 2026-05-03 23:55 | 23.05977 | 85.87470 | 38212 ft | 492 kts | 308° |
| 2026-05-03 23:56 | 23.10527 | 85.81927 | 38204 ft | 492 kts | 308° |
| 2026-05-03 23:56 | 23.15062 | 85.76398 | 38183 ft | 493 kts | 308° |
| 2026-05-03 23:57 | 23.19628 | 85.70827 | 38189 ft | 493 kts | 308° |
| 2026-05-03 23:57 | 23.24167 | 85.65282 | 38201 ft | 493 kts | 308° |
| 2026-05-03 23:58 | 23.28742 | 85.59687 | 38203 ft | 493 kts | 308° |
| 2026-05-03 23:58 | 23.33279 | 85.54132 | 38205 ft | 494 kts | 308° |
| 2026-05-03 23:59 | 23.37847 | 85.48533 | 38182 ft | 494 kts | 308° |
| 2026-05-03 23:59 | 23.42419 | 85.42923 | 38186 ft | 494 kts | 308° |
| 2026-05-04 00:00 | 23.46957 | 85.37348 | 38208 ft | 494 kts | 308° |
| 2026-05-04 00:00 | 23.51522 | 85.31733 | 38217 ft | 494 kts | 308° |
| 2026-05-04 00:01 | 23.56095 | 85.26104 | 38235 ft | 494 kts | 308° |
| 2026-05-04 00:01 | 23.60653 | 85.20485 | 38244 ft | 494 kts | 308° |
| 2026-05-04 00:02 | 23.65179 | 85.14899 | 38249 ft | 494 kts | 308° |
| 2026-05-04 00:02 | 23.69743 | 85.09260 | 38227 ft | 494 kts | 308° |
| 2026-05-04 00:03 | 23.74273 | 85.03657 | 38252 ft | 493 kts | 308° |
| 2026-05-04 00:03 | 23.78817 | 84.98030 | 38278 ft | 493 kts | 307° |
| 2026-05-04 00:04 | 23.83320 | 84.92448 | 38285 ft | 492 kts | 307° |
| 2026-05-04 00:04 | 23.87863 | 84.86809 | 38300 ft | 492 kts | 307° |
| 2026-05-04 00:05 | 23.92359 | 84.81221 | 38322 ft | 492 kts | 307° |
| 2026-05-04 00:05 | 23.96884 | 84.75593 | 38333 ft | 491 kts | 307° |
| 2026-05-04 00:06 | 24.01382 | 84.69990 | 38355 ft | 491 kts | 307° |
| 2026-05-04 00:06 | 24.05890 | 84.64368 | 38355 ft | 491 kts | 307° |
| 2026-05-04 00:07 | 24.10394 | 84.58746 | 38381 ft | 490 kts | 307° |
| 2026-05-04 00:07 | 24.14865 | 84.53157 | 38393 ft | 490 kts | 307° |
| 2026-05-04 00:08 | 24.19366 | 84.47525 | 38391 ft | 489 kts | 307° |
| 2026-05-04 00:08 | 24.23821 | 84.41932 | 38371 ft | 489 kts | 307° |
| 2026-05-04 00:09 | 24.28294 | 84.36285 | 38324 ft | 490 kts | 307° |
| 2026-05-04 00:09 | 24.32773 | 84.30618 | 38298 ft | 490 kts | 307° |
| 2026-05-04 00:10 | 24.37221 | 84.24988 | 38300 ft | 490 kts | 307° |
| 2026-05-04 00:10 | 24.41694 | 84.19321 | 38283 ft | 490 kts | 307° |
| 2026-05-04 00:11 | 24.46137 | 84.13687 | 38253 ft | 491 kts | 306° |
| 2026-05-04 00:11 | 24.50625 | 84.07987 | 38249 ft | 491 kts | 306° |
| 2026-05-04 00:12 | 24.55066 | 84.02342 | 38273 ft | 491 kts | 306° |
| 2026-05-04 00:12 | 24.59531 | 83.96659 | 38302 ft | 490 kts | 306° |
| 2026-05-04 00:13 | 24.63992 | 83.90974 | 38267 ft | 491 kts | 306° |
| 2026-05-04 00:13 | 24.68431 | 83.85310 | 38310 ft | 490 kts | 306° |
| 2026-05-04 00:14 | 24.72881 | 83.79626 | 38335 ft | 489 kts | 306° |
| 2026-05-04 00:14 | 24.76567 | 83.74910 | 38352 ft | 489 kts | 306° |
| 2026-05-04 00:15 | 24.81007 | 83.69227 | 38353 ft | 489 kts | 306° |
| 2026-05-04 00:15 | 24.85451 | 83.63530 | 38333 ft | 489 kts | 306° |
| 2026-05-04 00:16 | 24.89871 | 83.57857 | 38325 ft | 490 kts | 306° |
| 2026-05-04 00:16 | 24.94325 | 83.52136 | 38298 ft | 490 kts | 306° |
| 2026-05-04 00:17 | 24.98730 | 83.46469 | 38336 ft | 490 kts | 306° |
| 2026-05-04 00:17 | 25.03176 | 83.40743 | 38328 ft | 490 kts | 305° |
| 2026-05-04 00:18 | 25.07613 | 83.35021 | 38300 ft | 490 kts | 305° |
| 2026-05-04 00:18 | 25.12041 | 83.29303 | 38296 ft | 491 kts | 305° |
| 2026-05-04 00:19 | 25.16454 | 83.23599 | 38287 ft | 491 kts | 305° |
| 2026-05-04 00:19 | 25.20901 | 83.17843 | 38310 ft | 490 kts | 305° |
| 2026-05-04 00:20 | 25.25319 | 83.12117 | 38299 ft | 491 kts | 305° |
| 2026-05-04 00:20 | 25.29752 | 83.06366 | 38283 ft | 491 kts | 305° |
| 2026-05-04 00:21 | 25.34157 | 83.00643 | 38293 ft | 491 kts | 305° |
| 2026-05-04 00:21 | 25.38586 | 82.94880 | 38284 ft | 491 kts | 305° |
| 2026-05-04 00:22 | 25.43022 | 82.89103 | 38288 ft | 492 kts | 304° |
| 2026-05-04 00:22 | 25.47322 | 82.83270 | 38289 ft | 489 kts | 302° |
| 2026-05-04 00:23 | 25.51408 | 82.77232 | 38297 ft | 489 kts | 301° |
| 2026-05-04 00:23 | 25.55434 | 82.71215 | 38302 ft | 489 kts | 301° |
| 2026-05-04 00:24 | 25.59495 | 82.65171 | 38320 ft | 489 kts | 301° |
| 2026-05-04 00:24 | 25.63571 | 82.59124 | 38337 ft | 489 kts | 301° |
| 2026-05-04 00:25 | 25.67643 | 82.53083 | 38346 ft | 489 kts | 301° |
| 2026-05-04 00:25 | 25.71689 | 82.47071 | 38370 ft | 488 kts | 301° |
| 2026-05-04 00:26 | 25.75762 | 82.41010 | 38383 ft | 488 kts | 301° |
| 2026-05-04 00:26 | 25.79801 | 82.34991 | 38407 ft | 488 kts | 301° |
| 2026-05-04 00:27 | 25.83837 | 82.28970 | 38413 ft | 487 kts | 301° |
| 2026-05-04 00:27 | 25.87890 | 82.22914 | 38458 ft | 486 kts | 301° |
| 2026-05-04 00:28 | 25.91906 | 82.16907 | 38467 ft | 486 kts | 301° |
| 2026-05-04 00:28 | 25.95940 | 82.10863 | 38489 ft | 485 kts | 301° |
| 2026-05-04 00:29 | 25.99943 | 82.04858 | 38511 ft | 485 kts | 301° |
| 2026-05-04 00:29 | 26.03959 | 81.98827 | 38517 ft | 484 kts | 301° |
| 2026-05-04 00:30 | 26.07949 | 81.92827 | 38527 ft | 484 kts | 300° |
| 2026-05-04 00:30 | 26.11960 | 81.86786 | 38531 ft | 484 kts | 300° |
| 2026-05-04 00:31 | 26.15946 | 81.80776 | 38529 ft | 483 kts | 300° |
| 2026-05-04 00:31 | 26.19952 | 81.74728 | 38513 ft | 483 kts | 300° |
| 2026-05-04 00:32 | 26.23923 | 81.68724 | 38508 ft | 483 kts | 300° |
| 2026-05-04 00:32 | 26.27897 | 81.62709 | 38514 ft | 483 kts | 300° |
| 2026-05-04 00:33 | 26.33877 | 81.53641 | 38513 ft | 483 kts | 300° |
| 2026-05-04 00:34 | 26.37830 | 81.47637 | 38516 ft | 482 kts | 300° |
| 2026-05-04 00:34 | 26.41811 | 81.41583 | 38506 ft | 483 kts | 300° |
| 2026-05-04 00:35 | 26.45779 | 81.35541 | 38512 ft | 482 kts | 300° |
| 2026-05-04 00:35 | 26.49734 | 81.29510 | 38508 ft | 482 kts | 300° |
| 2026-05-04 00:36 | 26.53706 | 81.23445 | 38506 ft | 482 kts | 300° |
| 2026-05-04 00:36 | 26.57642 | 81.17426 | 38514 ft | 482 kts | 300° |
| 2026-05-04 00:37 | 26.61611 | 81.11350 | 38525 ft | 482 kts | 300° |
| 2026-05-04 00:37 | 26.65536 | 81.05332 | 38529 ft | 482 kts | 300° |
| 2026-05-04 00:38 | 26.69485 | 80.99269 | 38524 ft | 482 kts | 300° |
| 2026-05-04 00:38 | 26.73415 | 80.93228 | 38565 ft | 481 kts | 299° |
| 2026-05-04 00:39 | 26.77440 | 80.87300 | 38729 ft | 481 kts | 303° |
| 2026-05-04 00:39 | 26.81804 | 80.81603 | 38774 ft | 481 kts | 304° |
| 2026-05-04 00:40 | 26.86189 | 80.75929 | 38779 ft | 481 kts | 304° |
| 2026-05-04 00:40 | 26.90527 | 80.70272 | 38776 ft | 481 kts | 303° |
| 2026-05-04 00:41 | 26.94867 | 80.64582 | 38770 ft | 481 kts | 304° |
| 2026-05-04 00:41 | 26.99215 | 80.58866 | 38762 ft | 481 kts | 304° |
| 2026-05-04 00:42 | 27.03563 | 80.53145 | 38762 ft | 481 kts | 304° |
| 2026-05-04 00:42 | 27.07888 | 80.47447 | 38762 ft | 481 kts | 304° |
| 2026-05-04 00:43 | 27.12223 | 80.41730 | 38766 ft | 480 kts | 304° |
| 2026-05-04 00:43 | 27.16534 | 80.36037 | 38770 ft | 480 kts | 304° |
| 2026-05-04 00:44 | 27.20866 | 80.30309 | 38764 ft | 480 kts | 304° |
| 2026-05-04 00:44 | 27.25200 | 80.24571 | 38782 ft | 480 kts | 304° |
| 2026-05-04 00:45 | 27.29492 | 80.18880 | 38778 ft | 479 kts | 304° |
| 2026-05-04 00:45 | 27.33815 | 80.13140 | 38785 ft | 479 kts | 304° |
| 2026-05-04 00:46 | 27.38101 | 80.07443 | 38794 ft | 479 kts | 304° |
| 2026-05-04 00:46 | 27.42414 | 80.01701 | 38799 ft | 480 kts | 304° |
| 2026-05-04 00:47 | 27.46714 | 79.95969 | 38803 ft | 480 kts | 304° |
| 2026-05-04 00:47 | 27.51030 | 79.90209 | 38804 ft | 480 kts | 304° |
| 2026-05-04 00:48 | 27.55316 | 79.84481 | 38810 ft | 481 kts | 304° |
| 2026-05-04 00:48 | 27.59640 | 79.78693 | 38813 ft | 481 kts | 304° |
| 2026-05-04 00:49 | 27.63933 | 79.72940 | 38812 ft | 482 kts | 304° |
| 2026-05-04 00:49 | 27.68084 | 79.67025 | 38818 ft | 477 kts | 298° |
| 2026-05-04 00:50 | 27.71320 | 79.60570 | 38820 ft | 471 kts | 289° |
| 2026-05-04 00:50 | 27.73839 | 79.53747 | 38826 ft | 469 kts | 287° |
| 2026-05-04 00:51 | 27.76292 | 79.46942 | 38822 ft | 470 kts | 287° |
| 2026-05-04 00:51 | 27.78782 | 79.40085 | 38817 ft | 471 kts | 288° |
| 2026-05-04 00:52 | 27.81293 | 79.33212 | 38819 ft | 473 kts | 288° |
| 2026-05-04 00:52 | 27.83793 | 79.26377 | 38826 ft | 474 kts | 287° |
| 2026-05-04 00:53 | 27.86313 | 79.19475 | 38825 ft | 475 kts | 287° |
| 2026-05-04 00:53 | 27.88836 | 79.12548 | 38830 ft | 477 kts | 287° |
| 2026-05-04 00:54 | 27.91348 | 79.05637 | 38833 ft | 478 kts | 287° |
| 2026-05-04 00:54 | 27.93879 | 78.98659 | 38838 ft | 479 kts | 286° |
| 2026-05-04 00:55 | 27.96410 | 78.91673 | 38838 ft | 480 kts | 286° |
| 2026-05-04 00:55 | 27.98924 | 78.84717 | 38833 ft | 481 kts | 286° |
| 2026-05-04 00:56 | 28.01461 | 78.77686 | 38829 ft | 481 kts | 286° |
| 2026-05-04 00:56 | 28.03996 | 78.70646 | 38829 ft | 482 kts | 286° |
| 2026-05-04 00:57 | 28.06514 | 78.63642 | 38831 ft | 482 kts | 286° |
| 2026-05-04 00:57 | 28.09046 | 78.56582 | 38828 ft | 483 kts | 287° |
| 2026-05-04 00:58 | 28.11563 | 78.49555 | 38822 ft | 483 kts | 287° |
| 2026-05-04 00:58 | 28.14088 | 78.42490 | 38817 ft | 482 kts | 287° |
| 2026-05-04 00:59 | 28.16590 | 78.35477 | 38811 ft | 482 kts | 287° |
| 2026-05-04 00:59 | 28.19105 | 78.28411 | 38804 ft | 482 kts | 287° |
| 2026-05-04 01:00 | 28.21600 | 78.21392 | 38800 ft | 481 kts | 287° |
| 2026-05-04 01:00 | 28.24103 | 78.14334 | 38793 ft | 481 kts | 287° |
| 2026-05-04 01:01 | 28.26181 | 78.08465 | 38793 ft | 481 kts | 287° |
| 2026-05-04 01:01 | 28.29079 | 78.00264 | 38793 ft | 480 kts | 288° |
| 2026-05-04 01:02 | 28.31146 | 77.94402 | 38793 ft | 480 kts | 288° |
| 2026-05-04 01:02 | 28.33630 | 77.87345 | 38790 ft | 479 kts | 288° |
| 2026-05-04 01:03 | 28.36091 | 77.80340 | 38784 ft | 479 kts | 288° |
| 2026-05-04 01:03 | 28.38547 | 77.73339 | 38792 ft | 478 kts | 289° |
| 2026-05-04 01:04 | 28.40787 | 77.66226 | 38789 ft | 477 kts | 285° |
| 2026-05-04 01:04 | 28.42785 | 77.59080 | 38789 ft | 477 kts | 285° |
| 2026-05-04 01:05 | 28.44795 | 77.51866 | 38788 ft | 477 kts | 286° |
| 2026-05-04 01:05 | 28.46809 | 77.44701 | 38801 ft | 478 kts | 287° |
| 2026-05-04 01:06 | 28.48842 | 77.37480 | 38817 ft | 479 kts | 286° |
| 2026-05-04 01:06 | 28.50861 | 77.30294 | 38816 ft | 480 kts | 285° |
| 2026-05-04 01:07 | 28.52895 | 77.23031 | 38813 ft | 482 kts | 285° |
| 2026-05-04 01:07 | 28.54921 | 77.15782 | 38809 ft | 483 kts | 284° |
| 2026-05-04 01:08 | 28.57112 | 77.08539 | 38810 ft | 486 kts | 289° |
| 2026-05-04 01:08 | 28.60165 | 77.01619 | 38817 ft | 490 kts | 294° |
| 2026-05-04 01:09 | 28.63336 | 76.94808 | 38814 ft | 490 kts | 293° |
| 2026-05-04 01:09 | 28.66516 | 76.87911 | 38806 ft | 490 kts | 293° |
| 2026-05-04 01:10 | 28.69641 | 76.81057 | 38799 ft | 490 kts | 292° |
| 2026-05-04 01:10 | 28.72773 | 76.74158 | 38785 ft | 489 kts | 292° |
| 2026-05-04 01:11 | 28.75884 | 76.67294 | 38784 ft | 488 kts | 292° |
| 2026-05-04 01:11 | 28.79002 | 76.60407 | 38781 ft | 487 kts | 292° |
| 2026-05-04 01:12 | 28.82106 | 76.53540 | 38780 ft | 486 kts | 292° |
| 2026-05-04 01:12 | 28.85186 | 76.46714 | 38778 ft | 485 kts | 292° |
| 2026-05-04 01:13 | 28.88281 | 76.39844 | 38770 ft | 485 kts | 292° |
| 2026-05-04 01:13 | 28.91342 | 76.33036 | 38769 ft | 483 kts | 292° |
| 2026-05-04 01:14 | 28.94411 | 76.26199 | 38764 ft | 483 kts | 292° |
| 2026-05-04 01:14 | 28.97471 | 76.19370 | 38763 ft | 482 kts | 292° |
| 2026-05-04 01:15 | 29.00522 | 76.12551 | 38765 ft | 481 kts | 292° |
| 2026-05-04 01:15 | 29.03549 | 76.05771 | 38761 ft | 481 kts | 292° |
| 2026-05-04 01:16 | 29.06589 | 75.98952 | 38757 ft | 480 kts | 292° |
| 2026-05-04 01:16 | 29.09604 | 75.92178 | 38750 ft | 480 kts | 292° |
| 2026-05-04 01:17 | 29.12634 | 75.85357 | 38750 ft | 480 kts | 292° |
| 2026-05-04 01:17 | 29.15636 | 75.78589 | 38745 ft | 480 kts | 292° |
| 2026-05-04 01:18 | 29.18654 | 75.71770 | 38744 ft | 479 kts | 292° |
| 2026-05-04 01:18 | 29.21667 | 75.64953 | 38738 ft | 479 kts | 292° |
| 2026-05-04 01:19 | 29.24676 | 75.58133 | 38734 ft | 479 kts | 292° |
| 2026-05-04 01:19 | 29.27663 | 75.51352 | 38735 ft | 479 kts | 292° |
| 2026-05-04 01:20 | 29.30739 | 75.44552 | 38732 ft | 480 kts | 294° |
| 2026-05-04 01:20 | 29.34106 | 75.37920 | 38733 ft | 484 kts | 301° |
| 2026-05-04 01:21 | 29.38128 | 75.31713 | 38728 ft | 485 kts | 302° |
| 2026-05-04 01:21 | 29.42174 | 75.25541 | 38721 ft | 485 kts | 302° |
| 2026-05-04 01:22 | 29.46216 | 75.19319 | 38714 ft | 485 kts | 302° |
| 2026-05-04 01:22 | 29.50212 | 75.13124 | 38713 ft | 485 kts | 302° |
| 2026-05-04 01:23 | 29.54222 | 75.06891 | 38709 ft | 485 kts | 302° |
| 2026-05-04 01:23 | 29.58236 | 75.00642 | 38707 ft | 485 kts | 302° |
| 2026-05-04 01:24 | 29.62246 | 74.94393 | 38705 ft | 485 kts | 302° |
| 2026-05-04 01:24 | 29.66235 | 74.88166 | 38702 ft | 485 kts | 302° |
| 2026-05-04 01:25 | 29.70242 | 74.81903 | 38697 ft | 486 kts | 302° |
| 2026-05-04 01:25 | 29.74225 | 74.75669 | 38697 ft | 486 kts | 302° |
| 2026-05-04 01:26 | 29.78233 | 74.69383 | 38690 ft | 486 kts | 302° |
| 2026-05-04 01:26 | 29.82238 | 74.63094 | 38686 ft | 486 kts | 302° |
| 2026-05-04 01:27 | 29.86213 | 74.56844 | 38684 ft | 486 kts | 302° |
| 2026-05-04 01:27 | 29.90210 | 74.50546 | 38681 ft | 486 kts | 302° |
| 2026-05-04 01:28 | 29.94188 | 74.44272 | 38682 ft | 486 kts | 303° |
| 2026-05-04 01:28 | 29.98182 | 74.37960 | 38682 ft | 486 kts | 303° |
| 2026-05-04 01:29 | 30.02156 | 74.31671 | 38680 ft | 486 kts | 303° |
| 2026-05-04 01:29 | 30.06146 | 74.25346 | 38680 ft | 486 kts | 303° |
| 2026-05-04 01:30 | 30.10130 | 74.19021 | 38684 ft | 486 kts | 303° |
| 2026-05-04 01:30 | 30.14091 | 74.12724 | 38681 ft | 486 kts | 303° |
| 2026-05-04 01:31 | 30.18075 | 74.06378 | 38681 ft | 487 kts | 303° |
| 2026-05-04 01:31 | 30.22033 | 74.00063 | 38684 ft | 487 kts | 303° |
| 2026-05-04 01:32 | 30.26018 | 73.93700 | 38690 ft | 488 kts | 303° |
| 2026-05-04 01:32 | 30.29990 | 73.87359 | 38693 ft | 489 kts | 303° |
| 2026-05-04 01:33 | 30.33990 | 73.80961 | 38702 ft | 489 kts | 303° |
| 2026-05-04 01:33 | 30.37965 | 73.74593 | 38699 ft | 490 kts | 303° |
| 2026-05-04 01:34 | 30.41967 | 73.68169 | 38707 ft | 490 kts | 303° |
| 2026-05-04 01:34 | 30.45942 | 73.61778 | 38706 ft | 491 kts | 303° |
| 2026-05-04 01:35 | 30.49937 | 73.55346 | 38710 ft | 491 kts | 303° |
| 2026-05-04 01:35 | 30.53924 | 73.48915 | 38708 ft | 491 kts | 303° |
| 2026-05-04 01:36 | 30.57901 | 73.42490 | 38717 ft | 491 kts | 303° |
| 2026-05-04 01:36 | 30.61893 | 73.36031 | 38716 ft | 491 kts | 303° |
| 2026-05-04 01:37 | 30.65849 | 73.29618 | 38702 ft | 491 kts | 303° |
| 2026-05-04 01:37 | 30.69838 | 73.23147 | 38708 ft | 491 kts | 303° |
| 2026-05-04 01:38 | 30.73800 | 73.16724 | 38707 ft | 491 kts | 303° |
| 2026-05-04 01:38 | 30.77787 | 73.10251 | 38705 ft | 490 kts | 303° |
| 2026-05-04 01:39 | 30.81736 | 73.03826 | 38698 ft | 489 kts | 303° |
| 2026-05-04 01:39 | 30.85699 | 72.97366 | 38696 ft | 489 kts | 303° |
| 2026-05-04 01:40 | 30.89631 | 72.90948 | 38696 ft | 488 kts | 303° |
| 2026-05-04 01:40 | 30.93553 | 72.84534 | 38696 ft | 487 kts | 303° |
| 2026-05-04 01:41 | 30.97478 | 72.78105 | 38698 ft | 486 kts | 303° |
| 2026-05-04 01:41 | 31.01371 | 72.71717 | 38694 ft | 485 kts | 303° |
| 2026-05-04 01:42 | 31.05282 | 72.65291 | 38698 ft | 484 kts | 303° |
| 2026-05-04 01:42 | 31.09181 | 72.58872 | 38707 ft | 483 kts | 303° |
| 2026-05-04 01:43 | 31.13052 | 72.52489 | 38716 ft | 483 kts | 303° |
| 2026-05-04 01:43 | 31.16926 | 72.46092 | 38717 ft | 482 kts | 303° |
| 2026-05-04 01:44 | 31.20793 | 72.39695 | 38721 ft | 481 kts | 303° |
| 2026-05-04 01:44 | 31.24627 | 72.33342 | 38730 ft | 480 kts | 303° |
| 2026-05-04 01:45 | 31.28229 | 72.26788 | 38729 ft | 477 kts | 297° |
| 2026-05-04 01:45 | 31.32925 | 72.16568 | 38735 ft | 475 kts | 296° |
| 2026-05-04 01:46 | 31.36066 | 72.09739 | 38734 ft | 474 kts | 296° |
| 2026-05-04 01:46 | 31.39191 | 72.02977 | 38732 ft | 473 kts | 296° |
| 2026-05-04 01:47 | 31.42328 | 71.96190 | 38742 ft | 472 kts | 296° |
| 2026-05-04 01:47 | 31.45434 | 71.89455 | 38744 ft | 472 kts | 296° |
| 2026-05-04 01:48 | 31.48552 | 71.82679 | 38747 ft | 471 kts | 296° |
| 2026-05-04 01:48 | 31.51637 | 71.75963 | 38746 ft | 470 kts | 296° |
| 2026-05-04 01:49 | 31.54741 | 71.69193 | 38750 ft | 469 kts | 297° |
| 2026-05-04 01:49 | 31.57814 | 71.62480 | 38754 ft | 469 kts | 297° |
| 2026-05-04 01:50 | 31.60899 | 71.55725 | 38755 ft | 468 kts | 296° |
| 2026-05-04 01:50 | 31.63450 | 71.50120 | 38751 ft | 468 kts | 297° |
| 2026-05-04 01:51 | 31.66509 | 71.43389 | 38750 ft | 467 kts | 297° |
| 2026-05-04 01:51 | 31.69566 | 71.36650 | 38755 ft | 467 kts | 297° |
| 2026-05-04 01:52 | 31.72617 | 71.29911 | 38759 ft | 466 kts | 297° |
| 2026-05-04 01:52 | 31.75648 | 71.23205 | 38765 ft | 466 kts | 297° |
| 2026-05-04 01:53 | 31.78687 | 71.16470 | 38766 ft | 466 kts | 297° |
| 2026-05-04 01:53 | 31.81720 | 71.09736 | 38771 ft | 465 kts | 297° |
| 2026-05-04 01:54 | 31.84746 | 71.03003 | 38771 ft | 465 kts | 297° |
| 2026-05-04 01:54 | 31.87741 | 70.96327 | 38782 ft | 464 kts | 297° |
| 2026-05-04 01:55 | 31.90797 | 70.89636 | 38785 ft | 464 kts | 300° |
| 2026-05-04 01:55 | 31.94520 | 70.83423 | 38795 ft | 465 kts | 306° |
| 2026-05-04 01:56 | 31.98518 | 70.77409 | 38798 ft | 465 kts | 306° |
| 2026-05-04 01:56 | 32.02473 | 70.71418 | 38802 ft | 465 kts | 306° |
| 2026-05-04 01:57 | 32.06433 | 70.65372 | 38805 ft | 465 kts | 306° |
| 2026-05-04 01:57 | 32.10376 | 70.59332 | 38812 ft | 465 kts | 306° |
| 2026-05-04 01:58 | 32.14307 | 70.53300 | 38816 ft | 465 kts | 306° |
| 2026-05-04 01:58 | 32.18253 | 70.47238 | 38812 ft | 465 kts | 306° |
| 2026-05-04 01:59 | 32.22197 | 70.41169 | 38833 ft | 464 kts | 306° |
| 2026-05-04 01:59 | 32.26118 | 70.35126 | 38841 ft | 464 kts | 306° |
| 2026-05-04 02:00 | 32.30026 | 70.29094 | 38836 ft | 464 kts | 306° |
| 2026-05-04 02:00 | 32.33954 | 70.23020 | 38854 ft | 464 kts | 306° |
| 2026-05-04 02:01 | 32.37860 | 70.16983 | 38878 ft | 464 kts | 307° |
| 2026-05-04 02:01 | 32.41865 | 70.10971 | 38866 ft | 464 kts | 307° |
| 2026-05-04 02:02 | 32.45868 | 70.05015 | 38883 ft | 463 kts | 307° |
| 2026-05-04 02:02 | 32.49879 | 69.99017 | 38882 ft | 463 kts | 307° |
| 2026-05-04 02:03 | 32.53869 | 69.93024 | 38888 ft | 462 kts | 307° |
| 2026-05-04 02:03 | 32.57822 | 69.87070 | 38899 ft | 462 kts | 307° |
| 2026-05-04 02:04 | 32.61819 | 69.81043 | 38916 ft | 462 kts | 307° |
| 2026-05-04 02:04 | 32.65773 | 69.75071 | 38896 ft | 463 kts | 307° |
| 2026-05-04 02:05 | 32.69772 | 69.69021 | 38917 ft | 464 kts | 307° |
| 2026-05-04 02:05 | 32.73747 | 69.62998 | 38907 ft | 465 kts | 307° |
| 2026-05-04 02:06 | 32.77725 | 69.56960 | 38915 ft | 467 kts | 307° |
| 2026-05-04 02:06 | 32.81734 | 69.50866 | 38941 ft | 467 kts | 307° |
| 2026-05-04 02:07 | 32.85745 | 69.44760 | 38933 ft | 467 kts | 307° |
| 2026-05-04 02:07 | 32.89726 | 69.38683 | 38936 ft | 467 kts | 307° |
| 2026-05-04 02:08 | 32.93705 | 69.32583 | 38948 ft | 466 kts | 307° |
| 2026-05-04 02:08 | 32.97679 | 69.26477 | 38975 ft | 464 kts | 307° |
| 2026-05-04 02:09 | 33.01622 | 69.20413 | 38974 ft | 464 kts | 307° |
| 2026-05-04 02:09 | 33.05555 | 69.14356 | 38966 ft | 463 kts | 307° |
| 2026-05-04 02:10 | 33.09494 | 69.08280 | 38988 ft | 461 kts | 307° |
| 2026-05-04 02:10 | 33.13418 | 69.02216 | 38984 ft | 461 kts | 307° |
| 2026-05-04 02:11 | 33.17313 | 68.96186 | 38987 ft | 461 kts | 307° |
| 2026-05-04 02:11 | 33.21228 | 68.90116 | 38989 ft | 460 kts | 307° |
| 2026-05-04 02:12 | 33.25117 | 68.84077 | 38986 ft | 459 kts | 307° |
| 2026-05-04 02:12 | 33.29069 | 68.78064 | 38990 ft | 459 kts | 309° |
| 2026-05-04 02:13 | 33.33225 | 68.72250 | 38989 ft | 458 kts | 310° |
| 2026-05-04 02:13 | 33.37357 | 68.66520 | 38991 ft | 458 kts | 310° |
| 2026-05-04 02:14 | 33.41497 | 68.60732 | 38990 ft | 457 kts | 310° |
| 2026-05-04 02:14 | 33.45630 | 68.54923 | 38997 ft | 457 kts | 310° |
| 2026-05-04 02:15 | 33.49745 | 68.49130 | 39001 ft | 456 kts | 310° |
| 2026-05-04 02:15 | 33.53835 | 68.43366 | 39011 ft | 455 kts | 309° |
| 2026-05-04 02:16 | 33.57906 | 68.37527 | 39020 ft | 454 kts | 309° |
| 2026-05-04 02:16 | 33.61883 | 68.31673 | 39033 ft | 454 kts | 308° |
| 2026-05-04 02:17 | 33.65868 | 68.25800 | 39052 ft | 452 kts | 308° |
| 2026-05-04 02:17 | 33.69843 | 68.19952 | 39062 ft | 451 kts | 308° |
| 2026-05-04 02:18 | 33.73793 | 68.14137 | 39062 ft | 450 kts | 308° |
| 2026-05-04 02:18 | 33.77754 | 68.08300 | 39083 ft | 450 kts | 308° |
| 2026-05-04 02:19 | 33.81692 | 68.02486 | 39096 ft | 450 kts | 308° |
| 2026-05-04 02:19 | 33.85652 | 67.96629 | 39106 ft | 450 kts | 308° |
| 2026-05-04 02:20 | 33.89602 | 67.90777 | 39114 ft | 450 kts | 308° |
| 2026-05-04 02:20 | 33.93526 | 67.84953 | 39126 ft | 450 kts | 308° |
| 2026-05-04 02:21 | 33.97475 | 67.79085 | 39142 ft | 450 kts | 308° |
| 2026-05-04 02:21 | 34.01418 | 67.73169 | 39141 ft | 452 kts | 308° |
| 2026-05-04 02:22 | 34.05305 | 67.67284 | 39141 ft | 451 kts | 308° |
| 2026-05-04 02:22 | 34.09213 | 67.61355 | 39148 ft | 451 kts | 308° |
| 2026-05-04 02:23 | 34.13120 | 67.55425 | 39154 ft | 450 kts | 308° |
| 2026-05-04 02:23 | 34.17004 | 67.49524 | 39159 ft | 451 kts | 308° |
| 2026-05-04 02:24 | 34.20925 | 67.43553 | 39156 ft | 452 kts | 308° |
| 2026-05-04 02:24 | 34.24816 | 67.37624 | 39158 ft | 452 kts | 308° |
| 2026-05-04 02:25 | 34.28717 | 67.31669 | 39162 ft | 450 kts | 308° |
| 2026-05-04 02:25 | 34.32579 | 67.25760 | 39167 ft | 450 kts | 308° |
| 2026-05-04 02:26 | 34.36464 | 67.19807 | 39167 ft | 449 kts | 308° |
| 2026-05-04 02:26 | 34.40327 | 67.13880 | 39178 ft | 448 kts | 307° |
| 2026-05-04 02:27 | 34.44171 | 67.07966 | 39192 ft | 447 kts | 308° |
| 2026-05-04 02:27 | 34.48027 | 67.02030 | 39179 ft | 447 kts | 308° |
| 2026-05-04 02:28 | 34.51866 | 66.96110 | 39189 ft | 447 kts | 308° |
| 2026-05-04 02:28 | 34.55691 | 66.90198 | 39200 ft | 448 kts | 308° |
| 2026-05-04 02:29 | 34.59545 | 66.84213 | 39200 ft | 449 kts | 308° |
| 2026-05-04 02:29 | 34.63380 | 66.78241 | 39205 ft | 450 kts | 307° |
| 2026-05-04 02:30 | 34.67241 | 66.72222 | 39209 ft | 452 kts | 307° |
| 2026-05-04 02:30 | 34.71108 | 66.66184 | 39198 ft | 451 kts | 307° |
| 2026-05-04 02:31 | 34.74928 | 66.60209 | 39180 ft | 448 kts | 307° |
| 2026-05-04 02:31 | 34.78736 | 66.54248 | 39179 ft | 444 kts | 307° |
| 2026-05-04 02:32 | 34.82519 | 66.48306 | 39202 ft | 443 kts | 307° |
| 2026-05-04 02:32 | 34.86286 | 66.42385 | 39193 ft | 446 kts | 307° |
| 2026-05-04 02:33 | 34.90094 | 66.36388 | 39195 ft | 448 kts | 308° |
| 2026-05-04 02:33 | 34.93922 | 66.30350 | 39178 ft | 450 kts | 307° |
| 2026-05-04 02:34 | 34.97722 | 66.24346 | 39193 ft | 448 kts | 307° |
| 2026-05-04 02:34 | 35.01532 | 66.18269 | 39185 ft | 450 kts | 307° |
| 2026-05-04 02:35 | 35.05312 | 66.12211 | 39165 ft | 451 kts | 307° |
| 2026-05-04 02:35 | 35.09110 | 66.06118 | 39173 ft | 451 kts | 307° |
| 2026-05-04 02:36 | 35.12913 | 66.00012 | 39173 ft | 451 kts | 307° |
| 2026-05-04 02:36 | 35.16685 | 65.93946 | 39153 ft | 450 kts | 307° |
| 2026-05-04 02:37 | 35.19859 | 65.88833 | 39150 ft | 448 kts | 307° |
| 2026-05-04 02:37 | 35.23607 | 65.82785 | 39157 ft | 448 kts | 307° |
| 2026-05-04 02:38 | 35.27383 | 65.76681 | 39140 ft | 448 kts | 307° |
| 2026-05-04 02:38 | 35.31135 | 65.70606 | 39140 ft | 448 kts | 307° |
| 2026-05-04 02:39 | 35.34859 | 65.64565 | 39114 ft | 446 kts | 307° |
| 2026-05-04 02:39 | 35.38594 | 65.58498 | 39144 ft | 445 kts | 307° |
| 2026-05-04 02:40 | 35.42330 | 65.52418 | 39126 ft | 446 kts | 307° |
| 2026-05-04 02:40 | 35.46047 | 65.46359 | 39127 ft | 446 kts | 307° |
| 2026-05-04 02:41 | 35.49779 | 65.40263 | 39122 ft | 446 kts | 307° |
| 2026-05-04 02:41 | 35.53518 | 65.34146 | 39121 ft | 446 kts | 307° |
| 2026-05-04 02:42 | 35.57217 | 65.28083 | 39110 ft | 447 kts | 307° |
| 2026-05-04 02:42 | 35.60958 | 65.21941 | 39103 ft | 448 kts | 307° |
| 2026-05-04 02:43 | 35.64698 | 65.15791 | 39104 ft | 447 kts | 306° |
| 2026-05-04 02:43 | 35.68407 | 65.09680 | 39105 ft | 447 kts | 306° |
| 2026-05-04 02:44 | 35.72108 | 65.03571 | 39098 ft | 447 kts | 306° |
| 2026-05-04 02:44 | 35.75829 | 64.97416 | 39088 ft | 448 kts | 306° |
| 2026-05-04 02:45 | 35.79550 | 64.91253 | 39083 ft | 447 kts | 306° |
| 2026-05-04 02:45 | 35.83266 | 64.85088 | 39085 ft | 447 kts | 306° |
| 2026-05-04 02:46 | 35.86945 | 64.78972 | 39083 ft | 446 kts | 306° |
| 2026-05-04 02:46 | 35.90627 | 64.72841 | 39078 ft | 446 kts | 306° |
| 2026-05-04 02:47 | 35.94320 | 64.66679 | 39080 ft | 445 kts | 306° |
| 2026-05-04 02:47 | 35.98008 | 64.60516 | 39081 ft | 445 kts | 306° |
| 2026-05-04 02:48 | 36.01663 | 64.54396 | 39080 ft | 445 kts | 306° |
| 2026-05-04 02:48 | 36.05349 | 64.48213 | 39077 ft | 445 kts | 306° |
| 2026-05-04 02:49 | 36.09005 | 64.42070 | 39078 ft | 445 kts | 306° |
| 2026-05-04 02:49 | 36.12679 | 64.35884 | 39079 ft | 445 kts | 306° |
| 2026-05-04 02:50 | 36.16324 | 64.29739 | 39074 ft | 445 kts | 306° |
| 2026-05-04 02:50 | 36.20070 | 64.23624 | 39079 ft | 445 kts | 307° |
| 2026-05-04 02:51 | 36.23896 | 64.17573 | 39077 ft | 445 kts | 308° |
| 2026-05-04 02:51 | 36.27694 | 64.11550 | 39072 ft | 445 kts | 307° |
| 2026-05-04 02:52 | 36.31476 | 64.05510 | 39075 ft | 445 kts | 307° |
| 2026-05-04 02:52 | 36.35267 | 63.99431 | 39073 ft | 444 kts | 307° |
| 2026-05-04 02:53 | 36.39028 | 63.93385 | 39069 ft | 444 kts | 307° |
| 2026-05-04 02:53 | 36.42808 | 63.87298 | 39072 ft | 444 kts | 307° |
| 2026-05-04 02:54 | 36.46588 | 63.81202 | 39074 ft | 444 kts | 307° |
| 2026-05-04 02:54 | 36.50351 | 63.75121 | 39072 ft | 444 kts | 307° |
| 2026-05-04 02:55 | 36.55985 | 63.65998 | 39078 ft | 443 kts | 307° |
| 2026-05-04 02:56 | 36.59738 | 63.59908 | 39073 ft | 443 kts | 307° |
| 2026-05-04 02:56 | 36.63461 | 63.53854 | 39072 ft | 443 kts | 307° |
| 2026-05-04 02:57 | 36.67216 | 63.47739 | 39072 ft | 442 kts | 307° |
| 2026-05-04 02:57 | 36.70952 | 63.41643 | 39073 ft | 442 kts | 307° |
| 2026-05-04 02:58 | 36.74688 | 63.35535 | 39069 ft | 442 kts | 307° |
| 2026-05-04 02:58 | 36.78397 | 63.29461 | 39074 ft | 442 kts | 307° |
| 2026-05-04 02:59 | 36.82107 | 63.23374 | 39075 ft | 442 kts | 307° |
| 2026-05-04 02:59 | 36.85848 | 63.17227 | 39063 ft | 441 kts | 307° |
| 2026-05-04 03:00 | 36.89533 | 63.11158 | 39061 ft | 441 kts | 307° |
| 2026-05-04 03:00 | 36.93251 | 63.05026 | 39064 ft | 441 kts | 307° |
| 2026-05-04 03:01 | 36.96933 | 62.98941 | 39060 ft | 441 kts | 307° |
| 2026-05-04 03:01 | 37.00638 | 62.92808 | 39064 ft | 441 kts | 306° |
| 2026-05-04 03:02 | 37.04318 | 62.86704 | 39062 ft | 441 kts | 306° |
| 2026-05-04 03:02 | 37.08024 | 62.80546 | 39062 ft | 441 kts | 306° |
| 2026-05-04 03:03 | 37.11719 | 62.74396 | 39062 ft | 441 kts | 306° |
| 2026-05-04 03:03 | 37.15390 | 62.68273 | 39062 ft | 442 kts | 306° |
| 2026-05-04 03:04 | 37.19087 | 62.62096 | 39066 ft | 442 kts | 306° |
| 2026-05-04 03:04 | 37.22777 | 62.55920 | 39060 ft | 442 kts | 306° |
| 2026-05-04 03:05 | 37.26444 | 62.49770 | 39060 ft | 442 kts | 306° |
| 2026-05-04 03:05 | 37.30133 | 62.43573 | 39062 ft | 442 kts | 306° |
| 2026-05-04 03:06 | 37.33794 | 62.37411 | 39067 ft | 442 kts | 306° |
| 2026-05-04 03:06 | 37.37481 | 62.31192 | 39065 ft | 442 kts | 306° |
| 2026-05-04 03:07 | 37.41144 | 62.25003 | 39059 ft | 442 kts | 306° |
| 2026-05-04 03:07 | 37.44809 | 62.18801 | 39069 ft | 441 kts | 306° |
| 2026-05-04 03:08 | 37.48470 | 62.12592 | 39072 ft | 441 kts | 306° |
| 2026-05-04 03:08 | 37.52107 | 62.06412 | 39075 ft | 441 kts | 306° |
| 2026-05-04 03:09 | 37.55765 | 62.00185 | 39074 ft | 441 kts | 306° |
| 2026-05-04 03:09 | 37.59400 | 61.93987 | 39079 ft | 441 kts | 306° |
| 2026-05-04 03:10 | 37.62865 | 61.87587 | 39079 ft | 440 kts | 299° |
| 2026-05-04 03:10 | 37.65646 | 61.80705 | 39080 ft | 440 kts | 296° |
| 2026-05-04 03:11 | 37.68368 | 61.73823 | 39076 ft | 440 kts | 296° |
| 2026-05-04 03:11 | 37.71114 | 61.66907 | 39071 ft | 440 kts | 296° |
| 2026-05-04 03:12 | 37.73854 | 61.60013 | 39068 ft | 440 kts | 296° |
| 2026-05-04 03:12 | 37.76583 | 61.53138 | 39062 ft | 440 kts | 296° |
| 2026-05-04 03:13 | 37.79328 | 61.46210 | 39061 ft | 440 kts | 296° |
| 2026-05-04 03:13 | 37.82059 | 61.39301 | 39057 ft | 440 kts | 296° |
| 2026-05-04 03:14 | 37.84799 | 61.32354 | 39057 ft | 440 kts | 296° |
| 2026-05-04 03:14 | 37.87514 | 61.25454 | 39056 ft | 440 kts | 296° |
| 2026-05-04 03:15 | 37.90242 | 61.18504 | 39058 ft | 440 kts | 296° |
| 2026-05-04 03:15 | 37.92965 | 61.11552 | 39053 ft | 440 kts | 296° |
| 2026-05-04 03:16 | 37.95685 | 61.04594 | 39055 ft | 440 kts | 296° |
| 2026-05-04 03:16 | 37.98389 | 60.97659 | 39051 ft | 440 kts | 296° |
| 2026-05-04 03:17 | 38.01105 | 60.90679 | 39052 ft | 441 kts | 296° |
| 2026-05-04 03:17 | 38.03797 | 60.83744 | 39050 ft | 441 kts | 296° |
| 2026-05-04 03:18 | 38.06514 | 60.76729 | 39042 ft | 441 kts | 296° |
| 2026-05-04 03:18 | 38.09205 | 60.69767 | 39041 ft | 441 kts | 295° |
| 2026-05-04 03:19 | 38.11908 | 60.62756 | 39050 ft | 441 kts | 295° |
| 2026-05-04 03:19 | 38.14592 | 60.55778 | 39040 ft | 441 kts | 295° |
| 2026-05-04 03:20 | 38.17285 | 60.48762 | 39037 ft | 441 kts | 295° |
| 2026-05-04 03:20 | 38.19958 | 60.41782 | 39035 ft | 441 kts | 295° |
| 2026-05-04 03:21 | 38.22643 | 60.34754 | 39035 ft | 441 kts | 295° |
| 2026-05-04 03:21 | 38.25323 | 60.27723 | 39031 ft | 441 kts | 295° |
| 2026-05-04 03:22 | 38.28002 | 60.20679 | 39029 ft | 441 kts | 295° |
| 2026-05-04 03:22 | 38.30657 | 60.13682 | 39030 ft | 441 kts | 295° |
| 2026-05-04 03:23 | 38.33334 | 60.06610 | 39027 ft | 441 kts | 295° |
| 2026-05-04 03:23 | 38.35983 | 59.99598 | 39023 ft | 441 kts | 295° |
| 2026-05-04 03:24 | 38.38196 | 59.93726 | 39016 ft | 441 kts | 295° |
| 2026-05-04 03:24 | 38.40848 | 59.86672 | 39024 ft | 441 kts | 295° |
| 2026-05-04 03:25 | 38.43504 | 59.79594 | 39014 ft | 441 kts | 294° |
| 2026-05-04 03:25 | 38.46137 | 59.72561 | 39017 ft | 441 kts | 294° |
| 2026-05-04 03:26 | 38.48780 | 59.65481 | 39015 ft | 441 kts | 294° |
| 2026-05-04 03:26 | 38.51411 | 59.58420 | 39008 ft | 441 kts | 294° |
| 2026-05-04 03:27 | 38.54050 | 59.51321 | 39012 ft | 441 kts | 294° |
| 2026-05-04 03:27 | 38.56672 | 59.44247 | 39005 ft | 441 kts | 294° |
| 2026-05-04 03:28 | 38.59285 | 59.37188 | 39003 ft | 441 kts | 294° |
| 2026-05-04 03:28 | 38.62014 | 59.30145 | 39005 ft | 442 kts | 296° |
| 2026-05-04 03:29 | 38.64846 | 59.23136 | 39001 ft | 442 kts | 296° |
| 2026-05-04 03:29 | 38.67639 | 59.16178 | 38997 ft | 442 kts | 295° |
| 2026-05-04 03:30 | 38.70429 | 59.09161 | 38998 ft | 442 kts | 295° |
| 2026-05-04 03:30 | 38.73208 | 59.02138 | 38999 ft | 442 kts | 295° |
| 2026-05-04 03:31 | 38.75985 | 58.95105 | 38992 ft | 442 kts | 295° |
| 2026-05-04 03:31 | 38.78739 | 58.88117 | 38991 ft | 442 kts | 295° |
| 2026-05-04 03:32 | 38.81514 | 58.81057 | 38990 ft | 442 kts | 295° |
| 2026-05-04 03:32 | 38.84266 | 58.74041 | 38992 ft | 442 kts | 295° |
| 2026-05-04 03:33 | 38.87029 | 58.66984 | 38988 ft | 442 kts | 295° |
| 2026-05-04 03:33 | 38.89543 | 58.59832 | 38990 ft | 440 kts | 288° |
| 2026-05-04 03:34 | 38.91557 | 58.52384 | 38992 ft | 440 kts | 288° |
| 2026-05-04 03:34 | 38.93551 | 58.44969 | 38993 ft | 441 kts | 288° |
| 2026-05-04 03:35 | 38.95563 | 58.37525 | 38992 ft | 441 kts | 288° |
| 2026-05-04 03:35 | 38.97568 | 58.30117 | 38990 ft | 441 kts | 288° |
| 2026-05-04 03:36 | 38.99588 | 58.22638 | 38990 ft | 441 kts | 288° |
| 2026-05-04 03:36 | 39.01593 | 58.15193 | 38991 ft | 442 kts | 288° |
| 2026-05-04 03:37 | 39.03608 | 58.07690 | 38992 ft | 442 kts | 288° |
| 2026-05-04 03:37 | 39.05606 | 58.00226 | 38986 ft | 443 kts | 288° |
| 2026-05-04 03:38 | 39.07611 | 57.92713 | 38987 ft | 443 kts | 288° |
| 2026-05-04 03:38 | 39.09598 | 57.85245 | 38986 ft | 443 kts | 288° |
| 2026-05-04 03:39 | 39.11597 | 57.77708 | 38984 ft | 444 kts | 287° |
| 2026-05-04 03:39 | 39.13593 | 57.70165 | 38986 ft | 444 kts | 287° |
| 2026-05-04 03:40 | 39.15572 | 57.62660 | 38985 ft | 445 kts | 287° |
| 2026-05-04 03:40 | 39.17564 | 57.55083 | 38987 ft | 445 kts | 287° |
| 2026-05-04 03:41 | 39.19534 | 57.47567 | 38986 ft | 445 kts | 287° |
| 2026-05-04 03:41 | 39.21517 | 57.39977 | 38986 ft | 446 kts | 287° |
| 2026-05-04 03:42 | 39.23488 | 57.32413 | 38987 ft | 446 kts | 287° |
| 2026-05-04 03:42 | 39.25462 | 57.24815 | 38986 ft | 446 kts | 287° |
| 2026-05-04 03:43 | 39.27421 | 57.17248 | 38985 ft | 446 kts | 287° |
| 2026-05-04 03:43 | 39.29387 | 57.09633 | 38983 ft | 447 kts | 287° |
| 2026-05-04 03:44 | 39.31350 | 57.02007 | 38982 ft | 447 kts | 287° |
| 2026-05-04 03:44 | 39.33295 | 56.94425 | 38983 ft | 447 kts | 287° |
| 2026-05-04 03:45 | 39.35248 | 56.86790 | 38981 ft | 447 kts | 287° |
| 2026-05-04 03:45 | 39.37177 | 56.79197 | 38983 ft | 446 kts | 286° |
| 2026-05-04 03:46 | 39.38975 | 56.71515 | 38983 ft | 446 kts | 285° |
| 2026-05-04 03:46 | 39.40722 | 56.63811 | 38979 ft | 446 kts | 285° |
| 2026-05-04 03:47 | 39.42479 | 56.56107 | 38981 ft | 446 kts | 285° |
| 2026-05-04 03:47 | 39.44230 | 56.48456 | 38979 ft | 446 kts | 285° |
| 2026-05-04 03:48 | 39.45989 | 56.40757 | 38978 ft | 445 kts | 285° |
| 2026-05-04 03:48 | 39.47746 | 56.33044 | 38977 ft | 445 kts | 284° |
| 2026-05-04 03:49 | 39.49483 | 56.25387 | 38976 ft | 445 kts | 284° |
| 2026-05-04 03:49 | 39.51218 | 56.17710 | 38974 ft | 445 kts | 284° |
| 2026-05-04 03:50 | 39.52957 | 56.09994 | 38975 ft | 445 kts | 284° |
| 2026-05-04 03:50 | 39.54680 | 56.02316 | 38975 ft | 445 kts | 284° |
| 2026-05-04 03:51 | 39.56407 | 55.94605 | 38976 ft | 445 kts | 284° |
| 2026-05-04 03:51 | 39.58123 | 55.86922 | 38972 ft | 445 kts | 284° |
| 2026-05-04 03:52 | 39.59852 | 55.79209 | 38968 ft | 445 kts | 284° |
| 2026-05-04 03:52 | 39.61580 | 55.71490 | 38970 ft | 445 kts | 284° |
| 2026-05-04 03:53 | 39.63290 | 55.63814 | 38970 ft | 445 kts | 284° |
| 2026-05-04 03:53 | 39.65007 | 55.56075 | 38968 ft | 445 kts | 284° |
| 2026-05-04 03:54 | 39.66718 | 55.48341 | 38965 ft | 446 kts | 284° |
| 2026-05-04 03:54 | 39.68420 | 55.40619 | 38969 ft | 446 kts | 284° |
| 2026-05-04 03:55 | 39.70123 | 55.32861 | 38965 ft | 446 kts | 284° |
| 2026-05-04 03:55 | 39.71808 | 55.25107 | 38971 ft | 446 kts | 284° |
| 2026-05-04 03:56 | 39.73485 | 55.17357 | 38970 ft | 446 kts | 283° |
| 2026-05-04 03:56 | 39.75162 | 55.09588 | 38968 ft | 446 kts | 283° |
| 2026-05-04 03:57 | 39.76822 | 55.01871 | 38975 ft | 446 kts | 283° |
| 2026-05-04 03:57 | 39.78489 | 54.94092 | 38968 ft | 445 kts | 283° |
| 2026-05-04 03:58 | 39.80968 | 54.82476 | 38975 ft | 445 kts | 283° |
| 2026-05-04 03:58 | 39.82620 | 54.74706 | 38978 ft | 445 kts | 283° |
| 2026-05-04 03:59 | 39.84279 | 54.66986 | 38980 ft | 445 kts | 283° |
| 2026-05-04 03:59 | 39.85948 | 54.59215 | 38977 ft | 444 kts | 283° |
| 2026-05-04 04:00 | 39.87609 | 54.51443 | 38978 ft | 444 kts | 283° |
| 2026-05-04 04:00 | 39.89153 | 54.43696 | 38988 ft | 442 kts | 278° |
| 2026-05-04 04:01 | 39.90048 | 54.35798 | 38979 ft | 441 kts | 276° |
| 2026-05-04 04:01 | 39.90885 | 54.27889 | 38982 ft | 440 kts | 276° |
| 2026-05-04 04:02 | 39.91729 | 54.20005 | 38969 ft | 441 kts | 276° |
| 2026-05-04 04:02 | 39.92577 | 54.12136 | 38973 ft | 440 kts | 276° |
| 2026-05-04 04:03 | 39.93429 | 54.04216 | 38967 ft | 440 kts | 276° |
| 2026-05-04 04:03 | 39.94275 | 53.96296 | 38974 ft | 440 kts | 276° |
| 2026-05-04 04:04 | 39.95114 | 53.88383 | 38970 ft | 440 kts | 276° |
| 2026-05-04 04:04 | 39.95943 | 53.80515 | 38970 ft | 441 kts | 276° |
| 2026-05-04 04:05 | 39.96773 | 53.72576 | 38974 ft | 440 kts | 276° |
| 2026-05-04 04:05 | 39.97593 | 53.64693 | 38974 ft | 441 kts | 275° |
| 2026-05-04 04:06 | 39.98412 | 53.56760 | 38976 ft | 441 kts | 275° |
| 2026-05-04 04:06 | 39.99226 | 53.48814 | 38978 ft | 441 kts | 275° |
| 2026-05-04 04:07 | 40.00029 | 53.40932 | 38980 ft | 442 kts | 275° |
| 2026-05-04 04:07 | 40.00829 | 53.33013 | 38985 ft | 442 kts | 275° |
| 2026-05-04 04:08 | 40.01631 | 53.25034 | 38992 ft | 443 kts | 275° |
| 2026-05-04 04:08 | 40.02427 | 53.17051 | 38994 ft | 443 kts | 275° |
| 2026-05-04 04:09 | 40.03215 | 53.09091 | 38971 ft | 444 kts | 275° |
| 2026-05-04 04:09 | 40.04016 | 53.01103 | 38968 ft | 444 kts | 277° |
| 2026-05-04 04:10 | 40.05001 | 52.94502 | 38974 ft | 445 kts | 279° |
| 2026-05-04 04:10 | 40.06492 | 52.85296 | 38970 ft | 445 kts | 279° |
| 2026-05-04 04:11 | 40.07759 | 52.77396 | 38975 ft | 444 kts | 279° |
| 2026-05-04 04:11 | 40.08801 | 52.70800 | 38976 ft | 444 kts | 279° |
| 2026-05-04 04:12 | 40.10041 | 52.62879 | 38984 ft | 443 kts | 279° |
| 2026-05-04 04:12 | 40.11264 | 52.55029 | 38985 ft | 443 kts | 279° |
| 2026-05-04 04:13 | 40.12490 | 52.47127 | 38987 ft | 443 kts | 279° |
| 2026-05-04 04:13 | 40.13709 | 52.39230 | 38990 ft | 442 kts | 279° |
| 2026-05-04 04:14 | 40.14916 | 52.31379 | 38991 ft | 442 kts | 279° |
| 2026-05-04 04:14 | 40.16119 | 52.23510 | 38989 ft | 443 kts | 279° |
| 2026-05-04 04:15 | 40.17320 | 52.15620 | 38990 ft | 443 kts | 279° |
| 2026-05-04 04:15 | 40.18518 | 52.07712 | 38989 ft | 443 kts | 278° |
| 2026-05-04 04:16 | 40.19716 | 51.99768 | 38993 ft | 443 kts | 278° |
| 2026-05-04 04:16 | 40.20900 | 51.91878 | 38996 ft | 443 kts | 278° |
| 2026-05-04 04:17 | 40.22077 | 51.83992 | 38994 ft | 444 kts | 278° |
| 2026-05-04 04:17 | 40.23252 | 51.76083 | 38995 ft | 443 kts | 278° |
| 2026-05-04 04:18 | 40.24427 | 51.68135 | 38995 ft | 443 kts | 278° |
| 2026-05-04 04:18 | 40.25588 | 51.60239 | 38997 ft | 443 kts | 278° |
| 2026-05-04 04:19 | 40.26749 | 51.52317 | 38991 ft | 443 kts | 278° |
| 2026-05-04 04:19 | 40.27904 | 51.44390 | 38991 ft | 442 kts | 278° |
| 2026-05-04 04:20 | 40.29052 | 51.36487 | 38992 ft | 442 kts | 278° |
| 2026-05-04 04:20 | 40.30195 | 51.28582 | 38996 ft | 441 kts | 278° |
| 2026-05-04 04:21 | 40.31327 | 51.20715 | 38996 ft | 441 kts | 278° |
| 2026-05-04 04:21 | 40.32460 | 51.12799 | 38994 ft | 441 kts | 278° |
| 2026-05-04 04:22 | 40.33583 | 51.04909 | 38995 ft | 440 kts | 278° |
| 2026-05-04 04:22 | 40.34694 | 50.97068 | 38993 ft | 440 kts | 278° |
| 2026-05-04 04:23 | 40.35808 | 50.89165 | 38993 ft | 440 kts | 277° |
| 2026-05-04 04:23 | 40.36915 | 50.81264 | 38991 ft | 440 kts | 277° |
| 2026-05-04 04:24 | 40.38010 | 50.73413 | 38988 ft | 440 kts | 277° |
| 2026-05-04 04:24 | 40.39110 | 50.65487 | 38983 ft | 440 kts | 277° |
| 2026-05-04 04:25 | 40.40195 | 50.57628 | 38983 ft | 440 kts | 277° |
| 2026-05-04 04:25 | 40.41283 | 50.49705 | 38980 ft | 440 kts | 277° |
| 2026-05-04 04:26 | 40.42363 | 50.41796 | 38968 ft | 440 kts | 277° |
| 2026-05-04 04:26 | 40.43434 | 50.33918 | 38965 ft | 440 kts | 277° |
| 2026-05-04 04:27 | 40.44503 | 50.26004 | 38967 ft | 440 kts | 277° |
| 2026-05-04 04:27 | 40.45563 | 50.18113 | 38970 ft | 440 kts | 277° |
| 2026-05-04 04:28 | 40.46618 | 50.10231 | 38967 ft | 440 kts | 277° |
| 2026-05-04 04:28 | 40.47514 | 50.02293 | 38962 ft | 437 kts | 272° |
| 2026-05-04 04:29 | 40.47981 | 49.94322 | 38976 ft | 437 kts | 271° |
| 2026-05-04 04:29 | 40.48431 | 49.86397 | 38978 ft | 437 kts | 271° |
| 2026-05-04 04:30 | 40.48894 | 49.78416 | 38975 ft | 437 kts | 271° |
| 2026-05-04 04:30 | 40.49359 | 49.70434 | 38970 ft | 437 kts | 271° |
| 2026-05-04 04:31 | 40.49818 | 49.62493 | 38974 ft | 437 kts | 271° |
| 2026-05-04 04:31 | 40.50269 | 49.54574 | 38979 ft | 436 kts | 271° |
| 2026-05-04 04:32 | 40.50719 | 49.46579 | 38980 ft | 436 kts | 271° |
| 2026-05-04 04:32 | 40.51161 | 49.38644 | 38982 ft | 436 kts | 271° |
| 2026-05-04 04:33 | 40.51597 | 49.30730 | 38983 ft | 436 kts | 271° |
| 2026-05-04 04:33 | 40.52033 | 49.22780 | 38986 ft | 436 kts | 271° |
| 2026-05-04 04:34 | 40.52467 | 49.14806 | 38976 ft | 436 kts | 271° |
| 2026-05-04 04:34 | 40.52891 | 49.06890 | 38987 ft | 436 kts | 271° |
| 2026-05-04 04:35 | 40.53310 | 48.98926 | 38986 ft | 437 kts | 271° |
| 2026-05-04 04:35 | 40.53725 | 48.90970 | 38993 ft | 438 kts | 271° |
| 2026-05-04 04:36 | 40.54139 | 48.82940 | 38998 ft | 439 kts | 271° |
| 2026-05-04 04:36 | 40.54544 | 48.74969 | 39003 ft | 440 kts | 271° |
| 2026-05-04 04:37 | 40.55345 | 48.58866 | 39009 ft | 441 kts | 271° |
| 2026-05-04 04:38 | 40.55736 | 48.50842 | 39013 ft | 442 kts | 271° |
| 2026-05-04 04:38 | 40.56121 | 48.42800 | 39011 ft | 443 kts | 270° |
| 2026-05-04 04:39 | 40.56505 | 48.34686 | 39013 ft | 443 kts | 270° |
| 2026-05-04 04:39 | 40.56881 | 48.26622 | 39011 ft | 443 kts | 270° |
| 2026-05-04 04:40 | 40.57253 | 48.18506 | 39023 ft | 443 kts | 270° |
| 2026-05-04 04:40 | 40.57620 | 48.10394 | 39018 ft | 444 kts | 270° |
| 2026-05-04 04:41 | 40.57979 | 48.02332 | 39017 ft | 443 kts | 270° |
| 2026-05-04 04:41 | 40.58333 | 47.94240 | 39019 ft | 443 kts | 270° |
| 2026-05-04 04:42 | 40.58623 | 47.86123 | 39003 ft | 443 kts | 269° |
| 2026-05-04 04:42 | 40.58880 | 47.78058 | 38995 ft | 443 kts | 269° |
| 2026-05-04 04:43 | 40.59139 | 47.69959 | 38995 ft | 443 kts | 269° |
| 2026-05-04 04:43 | 40.59397 | 47.61897 | 38997 ft | 442 kts | 269° |
| 2026-05-04 04:44 | 40.59651 | 47.53799 | 39004 ft | 442 kts | 269° |
| 2026-05-04 04:44 | 40.59901 | 47.45693 | 38995 ft | 442 kts | 269° |
| 2026-05-04 04:45 | 40.60142 | 47.37655 | 38973 ft | 442 kts | 269° |
| 2026-05-04 04:47 | 40.61575 | 47.09396 | 38961 ft | 444 kts | 274° |
| 2026-05-04 04:47 | 40.62432 | 47.01328 | 38969 ft | 444 kts | 274° |
| 2026-05-04 04:48 | 40.63268 | 46.93280 | 38971 ft | 444 kts | 274° |
| 2026-05-04 04:49 | 40.65299 | 46.73144 | 38967 ft | 444 kts | 273° |
| 2026-05-04 04:49 | 40.66099 | 46.65099 | 38952 ft | 444 kts | 273° |
| 2026-05-04 04:50 | 40.66899 | 46.57001 | 38945 ft | 444 kts | 273° |
| 2026-05-04 04:50 | 40.67686 | 46.48970 | 38944 ft | 444 kts | 273° |
| 2026-05-04 04:51 | 40.68472 | 46.40890 | 38941 ft | 444 kts | 273° |
| 2026-05-04 04:51 | 40.69255 | 46.32789 | 38941 ft | 444 kts | 273° |
| 2026-05-04 04:52 | 40.70025 | 46.24762 | 38942 ft | 444 kts | 272° |
| 2026-05-04 04:52 | 40.70795 | 46.16667 | 38944 ft | 444 kts | 272° |
| 2026-05-04 04:53 | 40.71561 | 46.08562 | 38939 ft | 445 kts | 272° |
| 2026-05-04 04:53 | 40.72315 | 46.00506 | 38927 ft | 445 kts | 272° |
| 2026-05-04 04:54 | 40.73072 | 45.92367 | 38930 ft | 445 kts | 272° |
| 2026-05-04 04:54 | 40.73816 | 45.84301 | 38913 ft | 445 kts | 272° |
| 2026-05-04 04:55 | 40.74561 | 45.76182 | 38924 ft | 446 kts | 272° |
| 2026-05-04 04:55 | 40.75299 | 45.68049 | 38922 ft | 447 kts | 272° |
| 2026-05-04 04:56 | 40.76029 | 45.59947 | 38913 ft | 447 kts | 272° |
| 2026-05-04 04:56 | 40.76760 | 45.51785 | 38920 ft | 448 kts | 272° |
| 2026-05-04 04:57 | 40.77256 | 45.43638 | 38923 ft | 446 kts | 269° |
| 2026-05-04 04:57 | 40.77606 | 45.35446 | 38924 ft | 446 kts | 269° |
| 2026-05-04 04:58 | 40.77953 | 45.27299 | 38923 ft | 446 kts | 269° |
| 2026-05-04 04:58 | 40.78310 | 45.19119 | 38928 ft | 445 kts | 269° |
| 2026-05-04 04:59 | 40.78665 | 45.10982 | 38928 ft | 446 kts | 269° |
| 2026-05-04 04:59 | 40.78962 | 45.04176 | 38915 ft | 446 kts | 269° |
| 2026-05-04 05:00 | 40.79313 | 44.96005 | 38922 ft | 444 kts | 269° |
| 2026-05-04 05:01 | 40.79811 | 44.83801 | 38928 ft | 445 kts | 269° |
| 2026-05-04 05:01 | 40.80143 | 44.75643 | 38921 ft | 445 kts | 269° |
| 2026-05-04 05:02 | 40.80470 | 44.67489 | 38930 ft | 444 kts | 269° |
| 2026-05-04 05:02 | 40.80787 | 44.59378 | 38921 ft | 444 kts | 269° |
| 2026-05-04 05:03 | 40.81104 | 44.51262 | 38920 ft | 444 kts | 269° |
| 2026-05-04 05:04 | 40.81712 | 44.34952 | 38928 ft | 445 kts | 269° |
| 2026-05-04 05:04 | 40.82010 | 44.26770 | 38932 ft | 446 kts | 269° |
| 2026-05-04 05:06 | 40.83143 | 43.94077 | 38948 ft | 445 kts | 268° |
| 2026-05-04 05:07 | 40.83412 | 43.85929 | 38943 ft | 446 kts | 268° |
| 2026-05-04 05:07 | 40.83685 | 43.77735 | 38944 ft | 446 kts | 268° |
| 2026-05-04 05:09 | 40.85530 | 43.40967 | 38917 ft | 447 kts | 270° |
| 2026-05-04 05:10 | 40.85980 | 43.32731 | 38916 ft | 448 kts | 270° |
| 2026-05-04 05:10 | 40.86415 | 43.24583 | 38911 ft | 448 kts | 269° |
| 2026-05-04 05:11 | 40.86847 | 43.16360 | 38915 ft | 448 kts | 269° |
| 2026-05-04 05:11 | 40.87275 | 43.08132 | 38915 ft | 448 kts | 269° |
| 2026-05-04 05:12 | 40.87693 | 42.99958 | 38908 ft | 448 kts | 269° |
| 2026-05-04 05:12 | 40.88109 | 42.91738 | 38894 ft | 448 kts | 269° |
| 2026-05-04 05:13 | 40.88520 | 42.83501 | 38897 ft | 448 kts | 269° |
| 2026-05-04 05:13 | 40.88922 | 42.75322 | 38888 ft | 448 kts | 269° |
| 2026-05-04 05:14 | 40.89321 | 42.67079 | 38884 ft | 448 kts | 269° |
| 2026-05-04 05:14 | 40.89714 | 42.58839 | 38878 ft | 448 kts | 269° |
| 2026-05-04 05:15 | 40.90097 | 42.50654 | 38856 ft | 448 kts | 269° |
| 2026-05-04 05:15 | 40.90478 | 42.42415 | 38862 ft | 448 kts | 269° |
| 2026-05-04 05:16 | 40.90852 | 42.34237 | 38850 ft | 448 kts | 269° |
| 2026-05-04 05:16 | 40.91222 | 42.25999 | 38845 ft | 448 kts | 269° |
| 2026-05-04 05:17 | 40.91586 | 42.17737 | 38821 ft | 450 kts | 269° |
| 2026-05-04 05:17 | 40.91944 | 42.09468 | 38833 ft | 451 kts | 269° |
| 2026-05-04 05:18 | 40.92296 | 42.01230 | 38815 ft | 452 kts | 269° |
| 2026-05-04 05:18 | 40.92644 | 41.92918 | 38800 ft | 452 kts | 269° |
| 2026-05-04 05:19 | 40.92987 | 41.84591 | 38807 ft | 452 kts | 269° |
| 2026-05-04 05:19 | 40.93324 | 41.76311 | 38794 ft | 453 kts | 269° |
| 2026-05-04 05:20 | 40.93655 | 41.67960 | 38800 ft | 454 kts | 269° |
| 2026-05-04 05:20 | 40.93980 | 41.59668 | 38792 ft | 454 kts | 269° |
| 2026-05-04 05:21 | 40.94301 | 41.51302 | 38802 ft | 454 kts | 268° |
| 2026-05-04 05:21 | 40.94614 | 41.42949 | 38791 ft | 454 kts | 269° |
| 2026-05-04 05:22 | 40.94921 | 41.34661 | 38805 ft | 452 kts | 268° |
| 2026-05-04 05:22 | 40.95224 | 41.26334 | 38806 ft | 451 kts | 268° |
| 2026-05-04 05:23 | 40.95516 | 41.18068 | 38809 ft | 451 kts | 268° |
| 2026-05-04 05:23 | 40.95802 | 41.09796 | 38805 ft | 450 kts | 268° |
| 2026-05-04 05:24 | 40.96086 | 41.01489 | 38802 ft | 452 kts | 268° |
| 2026-05-04 05:24 | 40.96363 | 40.93207 | 38794 ft | 453 kts | 268° |
| 2026-05-04 05:25 | 40.96634 | 40.84860 | 38808 ft | 454 kts | 268° |
| 2026-05-04 05:25 | 40.96895 | 40.76486 | 38797 ft | 455 kts | 268° |
| 2026-05-04 05:26 | 40.97150 | 40.68168 | 38813 ft | 454 kts | 268° |
| 2026-05-04 05:26 | 40.97400 | 40.59788 | 38799 ft | 456 kts | 268° |
| 2026-05-04 05:28 | 40.98348 | 40.26173 | 38801 ft | 458 kts | 268° |
| 2026-05-04 05:29 | 40.98569 | 40.17790 | 38794 ft | 457 kts | 268° |
| 2026-05-04 05:29 | 40.98784 | 40.09355 | 38795 ft | 457 kts | 267° |
| 2026-05-04 05:31 | 40.99814 | 39.75719 | 38808 ft | 461 kts | 272° |
| 2026-05-04 05:32 | 41.00647 | 39.67280 | 38809 ft | 462 kts | 273° |
| 2026-05-04 05:33 | 41.01900 | 39.54542 | 38853 ft | 472 kts | 272° |
| 2026-05-04 05:33 | 41.02720 | 39.45854 | 38809 ft | 480 kts | 272° |
| 2026-05-04 05:34 | 41.03541 | 39.37096 | 38810 ft | 481 kts | 272° |
| 2026-05-04 05:34 | 41.04362 | 39.28279 | 38814 ft | 481 kts | 272° |
| 2026-05-04 05:35 | 41.05173 | 39.19482 | 38820 ft | 480 kts | 272° |
| 2026-05-04 05:35 | 41.05974 | 39.10735 | 38818 ft | 478 kts | 272° |
| 2026-05-04 05:36 | 41.06786 | 39.02034 | 38823 ft | 477 kts | 272° |
| 2026-05-04 05:36 | 41.07595 | 38.93320 | 38823 ft | 475 kts | 272° |
| 2026-05-04 05:37 | 41.08394 | 38.84605 | 38833 ft | 475 kts | 272° |
| 2026-05-04 05:37 | 41.09180 | 38.75965 | 38830 ft | 475 kts | 272° |
| 2026-05-04 05:38 | 41.10321 | 38.62871 | 38830 ft | 477 kts | 272° |
| 2026-05-04 05:38 | 41.11046 | 38.54096 | 38827 ft | 479 kts | 272° |
| 2026-05-04 05:39 | 41.12159 | 38.40938 | 38818 ft | 482 kts | 272° |
| 2026-05-04 05:40 | 41.13266 | 38.27621 | 38816 ft | 484 kts | 272° |
| 2026-05-04 05:40 | 41.13985 | 38.18785 | 38813 ft | 486 kts | 272° |
| 2026-05-04 05:41 | 41.14705 | 38.09822 | 38814 ft | 487 kts | 272° |
| 2026-05-04 05:41 | 41.15415 | 38.00909 | 38809 ft | 489 kts | 272° |
| 2026-05-04 05:42 | 41.16125 | 37.91916 | 38824 ft | 490 kts | 272° |
| 2026-05-04 05:42 | 41.16856 | 37.82933 | 38825 ft | 492 kts | 272° |
| 2026-05-04 05:43 | 41.17655 | 37.73901 | 38822 ft | 493 kts | 273° |
| 2026-05-04 05:45 | 41.20282 | 37.37743 | 38816 ft | 492 kts | 272° |
| 2026-05-04 05:47 | 41.22923 | 37.03158 | 38807 ft | 491 kts | 273° |
| 2026-05-04 05:47 | 41.23748 | 36.92627 | 38802 ft | 492 kts | 272° |
| 2026-05-04 05:48 | 41.24327 | 36.85100 | 38788 ft | 492 kts | 272° |
| 2026-05-04 05:48 | 41.25016 | 36.76050 | 38786 ft | 493 kts | 272° |
| 2026-05-04 05:49 | 41.25703 | 36.66945 | 38776 ft | 495 kts | 272° |
| 2026-05-04 05:49 | 41.26414 | 36.57871 | 38780 ft | 497 kts | 276° |
| 2026-05-04 05:51 | 41.34854 | 36.22448 | 38780 ft | 504 kts | 286° |
| 2026-05-04 05:52 | 41.37090 | 36.13581 | 38780 ft | 505 kts | 285° |
| 2026-05-04 05:52 | 41.39307 | 36.04738 | 38781 ft | 505 kts | 285° |
| 2026-05-04 05:54 | 41.48123 | 35.69295 | 38780 ft | 503 kts | 285° |
| 2026-05-04 05:55 | 41.50310 | 35.60422 | 38772 ft | 502 kts | 285° |
| 2026-05-04 05:55 | 41.52476 | 35.51600 | 38777 ft | 500 kts | 285° |
| 2026-05-04 05:56 | 41.54638 | 35.42765 | 38778 ft | 499 kts | 285° |
| 2026-05-04 05:56 | 41.56785 | 35.33950 | 38780 ft | 498 kts | 285° |
| 2026-05-04 05:57 | 41.58915 | 35.25175 | 38780 ft | 497 kts | 285° |
| 2026-05-04 05:57 | 41.61033 | 35.16417 | 38786 ft | 497 kts | 285° |
| 2026-05-04 05:58 | 41.63157 | 35.07598 | 38779 ft | 497 kts | 286° |
| 2026-05-04 05:58 | 41.65257 | 34.98848 | 38783 ft | 496 kts | 286° |
| 2026-05-04 05:59 | 41.67369 | 34.90015 | 38780 ft | 496 kts | 286° |
| 2026-05-04 05:59 | 41.69452 | 34.81265 | 38781 ft | 496 kts | 286° |
| 2026-05-04 06:00 | 41.71551 | 34.72419 | 38782 ft | 496 kts | 286° |
| 2026-05-04 06:00 | 41.73621 | 34.63662 | 38785 ft | 496 kts | 286° |
| 2026-05-04 06:01 | 41.75700 | 34.54827 | 38792 ft | 497 kts | 286° |
| 2026-05-04 06:03 | 41.83941 | 34.19435 | 38800 ft | 498 kts | 285° |
| 2026-05-04 06:05 | 41.93095 | 33.79459 | 38802 ft | 498 kts | 286° |
| 2026-05-04 06:06 | 41.95112 | 33.70556 | 38819 ft | 498 kts | 286° |
| 2026-05-04 06:06 | 41.96937 | 33.61589 | 38802 ft | 497 kts | 283° |
| 2026-05-04 06:07 | 41.98606 | 33.52622 | 38809 ft | 496 kts | 283° |
| 2026-05-04 06:07 | 42.00301 | 33.43617 | 38810 ft | 495 kts | 283° |
| 2026-05-04 06:08 | 42.02016 | 33.34633 | 38812 ft | 495 kts | 284° |
| 2026-05-04 06:08 | 42.03719 | 33.25698 | 38816 ft | 495 kts | 284° |
| 2026-05-04 06:09 | 42.05418 | 33.16728 | 38822 ft | 498 kts | 284° |
| 2026-05-04 06:11 | 42.12646 | 32.80739 | 38834 ft | 495 kts | 285° |
| 2026-05-04 06:13 | 42.19873 | 32.44861 | 38869 ft | 508 kts | 285° |
| 2026-05-04 06:14 | 42.26204 | 32.12890 | 38871 ft | 503 kts | 285° |
| 2026-05-04 06:15 | 42.27999 | 32.03733 | 38879 ft | 504 kts | 285° |
| 2026-05-04 06:15 | 42.29772 | 31.94613 | 38871 ft | 503 kts | 285° |
| 2026-05-04 06:16 | 42.31546 | 31.85451 | 38888 ft | 504 kts | 285° |
| 2026-05-04 06:16 | 42.33311 | 31.76298 | 38884 ft | 505 kts | 285° |
| 2026-05-04 06:17 | 42.35079 | 31.67088 | 38888 ft | 505 kts | 285° |
| 2026-05-04 06:17 | 42.36834 | 31.57896 | 38887 ft | 503 kts | 285° |
| 2026-05-04 06:18 | 42.38565 | 31.48788 | 38891 ft | 502 kts | 285° |
| 2026-05-04 06:20 | 42.45455 | 31.12125 | 38921 ft | 502 kts | 285° |
| 2026-05-04 06:21 | 42.49699 | 30.89249 | 38930 ft | 502 kts | 285° |
| 2026-05-04 06:22 | 42.51390 | 30.80066 | 38924 ft | 501 kts | 285° |
| 2026-05-04 06:25 | 42.66075 | 30.17304 | 38976 ft | 498 kts | 309° |
| 2026-05-04 06:26 | 42.70314 | 30.09936 | 38956 ft | 494 kts | 310° |
| 2026-05-04 06:26 | 42.74558 | 30.02590 | 38977 ft | 494 kts | 310° |
| 2026-05-04 06:27 | 42.85056 | 29.84001 | 38983 ft | 496 kts | 309° |
| 2026-05-04 06:28 | 42.89260 | 29.76494 | 38993 ft | 497 kts | 309° |
| 2026-05-04 06:28 | 42.93432 | 29.69029 | 38993 ft | 495 kts | 309° |
| 2026-05-04 06:29 | 42.97574 | 29.61597 | 38993 ft | 493 kts | 309° |
| 2026-05-04 06:29 | 43.01750 | 29.54090 | 39009 ft | 496 kts | 309° |
| 2026-05-04 06:30 | 43.05898 | 29.46614 | 39002 ft | 494 kts | 309° |
| 2026-05-04 06:30 | 43.10052 | 29.39110 | 39011 ft | 494 kts | 309° |
| 2026-05-04 06:31 | 43.14195 | 29.31605 | 39016 ft | 496 kts | 309° |
| 2026-05-04 06:31 | 43.18362 | 29.24035 | 39017 ft | 496 kts | 309° |
| 2026-05-04 06:33 | 43.34925 | 28.93756 | 39032 ft | 496 kts | 308° |
| 2026-05-04 06:34 | 43.39036 | 28.86193 | 39033 ft | 496 kts | 308° |
| 2026-05-04 06:34 | 43.43174 | 28.78561 | 39036 ft | 496 kts | 308° |
| 2026-05-04 06:36 | 43.58642 | 28.49851 | 39028 ft | 482 kts | 308° |
| 2026-05-04 06:37 | 43.62638 | 28.42389 | 39043 ft | 483 kts | 308° |
| 2026-05-04 06:37 | 43.66607 | 28.34960 | 39039 ft | 484 kts | 308° |
| 2026-05-04 06:38 | 43.70624 | 28.27419 | 39022 ft | 487 kts | 308° |
| 2026-05-04 06:40 | 43.86654 | 27.97138 | 39054 ft | 488 kts | 307° |
| 2026-05-04 06:40 | 43.90659 | 27.89521 | 39059 ft | 487 kts | 307° |
| 2026-05-04 06:41 | 43.94642 | 27.81928 | 39057 ft | 486 kts | 307° |
| 2026-05-04 06:41 | 43.98593 | 27.74376 | 39061 ft | 484 kts | 307° |
| 2026-05-04 06:42 | 44.02540 | 27.66812 | 39063 ft | 482 kts | 307° |
| 2026-05-04 06:44 | 44.18163 | 27.36678 | 39075 ft | 479 kts | 307° |
| 2026-05-04 06:44 | 44.22057 | 27.29121 | 39079 ft | 479 kts | 307° |
| 2026-05-04 06:45 | 44.25942 | 27.21560 | 39081 ft | 479 kts | 307° |
| 2026-05-04 06:45 | 44.29809 | 27.14014 | 39084 ft | 479 kts | 307° |
| 2026-05-04 06:46 | 44.33687 | 27.06424 | 39084 ft | 479 kts | 307° |
| 2026-05-04 06:46 | 44.37562 | 26.98823 | 39081 ft | 479 kts | 307° |
| 2026-05-04 06:48 | 44.52889 | 26.68558 | 39085 ft | 475 kts | 308° |
| 2026-05-04 06:50 | 44.67555 | 26.37785 | 39082 ft | 476 kts | 305° |
| 2026-05-04 06:51 | 44.71101 | 26.29907 | 39083 ft | 477 kts | 305° |
| 2026-05-04 06:51 | 44.74652 | 26.22060 | 39085 ft | 478 kts | 305° |
| 2026-05-04 06:52 | 44.78239 | 26.14130 | 39081 ft | 480 kts | 305° |
| 2026-05-04 06:52 | 44.81826 | 26.06175 | 39086 ft | 481 kts | 305° |
| 2026-05-04 06:53 | 44.85409 | 25.98203 | 39086 ft | 482 kts | 305° |
| 2026-05-04 06:53 | 44.88987 | 25.90219 | 39089 ft | 482 kts | 305° |
| 2026-05-04 06:54 | 44.92542 | 25.82266 | 39084 ft | 481 kts | 304° |
| 2026-05-04 06:54 | 44.96109 | 25.74261 | 39097 ft | 480 kts | 304° |
| 2026-05-04 06:55 | 44.99638 | 25.66319 | 39081 ft | 478 kts | 305° |
| 2026-05-04 06:55 | 45.03167 | 25.58358 | 39082 ft | 477 kts | 304° |
| 2026-05-04 06:57 | 45.17115 | 25.26668 | 39084 ft | 473 kts | 304° |
| 2026-05-04 06:58 | 45.20589 | 25.18720 | 39090 ft | 473 kts | 304° |
| 2026-05-04 06:58 | 45.24035 | 25.10815 | 39091 ft | 473 kts | 304° |
| 2026-05-04 06:59 | 45.27498 | 25.02845 | 39089 ft | 474 kts | 304° |
| 2026-05-04 06:59 | 45.30941 | 24.94901 | 39091 ft | 474 kts | 304° |
| 2026-05-04 07:01 | 45.44716 | 24.62889 | 39107 ft | 474 kts | 304° |
| 2026-05-04 07:02 | 45.48151 | 24.54850 | 39108 ft | 474 kts | 304° |
| 2026-05-04 07:02 | 45.51557 | 24.46855 | 39115 ft | 473 kts | 304° |
| 2026-05-04 07:03 | 45.54974 | 24.38811 | 39125 ft | 472 kts | 304° |
| 2026-05-04 07:03 | 45.58353 | 24.30834 | 39146 ft | 472 kts | 304° |
| 2026-05-04 07:04 | 45.61753 | 24.22787 | 39152 ft | 472 kts | 304° |
| 2026-05-04 07:04 | 45.64963 | 24.14655 | 39153 ft | 473 kts | 300° |
| 2026-05-04 07:05 | 45.67853 | 24.06159 | 39155 ft | 473 kts | 298° |
| 2026-05-04 07:05 | 45.70694 | 23.97733 | 39159 ft | 473 kts | 299° |
| 2026-05-04 07:06 | 45.75006 | 23.85065 | 39155 ft | 472 kts | 299° |
| 2026-05-04 07:07 | 45.77889 | 23.76582 | 39149 ft | 471 kts | 299° |
| 2026-05-04 07:09 | 45.87399 | 23.41681 | 39154 ft | 467 kts | 294° |
| 2026-05-04 07:09 | 45.89694 | 23.32958 | 39147 ft | 466 kts | 294° |
| 2026-05-04 07:10 | 45.91964 | 23.24295 | 39152 ft | 465 kts | 294° |
| 2026-05-04 07:12 | 46.02369 | 22.90486 | 39166 ft | 462 kts | 300° |
| 2026-05-04 07:12 | 46.05266 | 22.82256 | 39158 ft | 463 kts | 300° |
| 2026-05-04 07:13 | 46.08164 | 22.73925 | 39171 ft | 464 kts | 300° |
| 2026-05-04 07:13 | 46.11048 | 22.65583 | 39157 ft | 465 kts | 300° |
| 2026-05-04 07:14 | 46.18223 | 22.44710 | 39166 ft | 465 kts | 299° |
| 2026-05-04 07:15 | 46.21087 | 22.36336 | 39174 ft | 465 kts | 299° |
| 2026-05-04 07:15 | 46.23927 | 22.28006 | 39170 ft | 464 kts | 299° |
| 2026-05-04 07:16 | 46.26777 | 22.19619 | 39166 ft | 463 kts | 299° |
| 2026-05-04 07:16 | 46.29610 | 22.11254 | 39166 ft | 462 kts | 299° |
| 2026-05-04 07:17 | 46.32422 | 22.02928 | 39172 ft | 461 kts | 299° |
| 2026-05-04 07:17 | 46.35236 | 21.94568 | 39175 ft | 460 kts | 299° |
| 2026-05-04 07:18 | 46.38023 | 21.86262 | 39178 ft | 459 kts | 298° |
| 2026-05-04 07:18 | 46.40793 | 21.77977 | 39174 ft | 458 kts | 298° |
| 2026-05-04 07:19 | 46.43573 | 21.69640 | 39178 ft | 458 kts | 298° |
| 2026-05-04 07:19 | 46.46333 | 21.61335 | 39174 ft | 458 kts | 298° |
| 2026-05-04 07:20 | 46.49094 | 21.53001 | 39181 ft | 457 kts | 298° |
| 2026-05-04 07:20 | 46.51832 | 21.44711 | 39179 ft | 458 kts | 298° |
| 2026-05-04 07:22 | 46.62323 | 21.12693 | 39182 ft | 458 kts | 298° |
| 2026-05-04 07:23 | 46.65036 | 21.04347 | 39185 ft | 458 kts | 298° |
| 2026-05-04 07:23 | 46.67757 | 20.95952 | 39184 ft | 458 kts | 298° |
| 2026-05-04 07:24 | 46.70456 | 20.87594 | 39186 ft | 457 kts | 297° |
| 2026-05-04 07:24 | 46.73162 | 20.79188 | 39184 ft | 457 kts | 297° |
| 2026-05-04 07:26 | 46.83881 | 20.45621 | 39179 ft | 455 kts | 297° |
| 2026-05-04 07:27 | 46.86527 | 20.37263 | 39179 ft | 455 kts | 297° |
| 2026-05-04 07:27 | 46.89180 | 20.28858 | 39183 ft | 455 kts | 297° |
| 2026-05-04 07:28 | 46.91822 | 20.20462 | 39180 ft | 454 kts | 297° |
| 2026-05-04 07:28 | 46.94462 | 20.12043 | 39178 ft | 454 kts | 297° |
| 2026-05-04 07:29 | 46.97093 | 20.03625 | 39180 ft | 454 kts | 297° |
| 2026-05-04 07:29 | 46.99703 | 19.95247 | 39180 ft | 454 kts | 296° |
| 2026-05-04 07:30 | 47.02324 | 19.86803 | 39179 ft | 454 kts | 296° |
| 2026-05-04 07:30 | 47.04924 | 19.78401 | 39180 ft | 454 kts | 296° |
| 2026-05-04 07:31 | 47.07533 | 19.69942 | 39174 ft | 454 kts | 296° |
| 2026-05-04 07:33 | 47.17879 | 19.36107 | 39152 ft | 454 kts | 295° |
| 2026-05-04 07:33 | 47.20459 | 19.27597 | 39156 ft | 454 kts | 295° |
| 2026-05-04 07:34 | 47.23020 | 19.19127 | 39150 ft | 454 kts | 295° |
| 2026-05-04 07:34 | 47.25570 | 19.10659 | 39154 ft | 454 kts | 295° |
| 2026-05-04 07:35 | 47.28110 | 19.02193 | 39149 ft | 453 kts | 295° |
| 2026-05-04 07:35 | 47.30659 | 18.93669 | 39150 ft | 453 kts | 295° |
| 2026-05-04 07:36 | 47.33198 | 18.85154 | 39143 ft | 453 kts | 295° |
| 2026-05-04 07:38 | 47.43242 | 18.51164 | 39116 ft | 451 kts | 295° |
| 2026-05-04 07:38 | 47.45725 | 18.42692 | 39134 ft | 451 kts | 294° |
| 2026-05-04 07:39 | 47.48213 | 18.34165 | 39128 ft | 450 kts | 294° |
| 2026-05-04 07:39 | 47.50675 | 18.25702 | 39107 ft | 450 kts | 294° |
| 2026-05-04 07:40 | 47.53144 | 18.17189 | 39100 ft | 449 kts | 294° |
| 2026-05-04 07:40 | 47.55601 | 18.08688 | 39096 ft | 448 kts | 294° |
| 2026-05-04 07:41 | 47.58031 | 18.00249 | 39110 ft | 448 kts | 294° |
| 2026-05-04 07:41 | 47.60475 | 17.91726 | 39106 ft | 447 kts | 294° |
| 2026-05-04 07:42 | 47.62887 | 17.83291 | 39110 ft | 447 kts | 294° |
| 2026-05-04 07:42 | 47.65312 | 17.74779 | 39095 ft | 447 kts | 293° |
| 2026-05-04 07:43 | 47.67724 | 17.66285 | 39108 ft | 446 kts | 293° |
| 2026-05-04 07:43 | 47.70121 | 17.57812 | 39102 ft | 447 kts | 293° |
| 2026-05-04 07:44 | 47.72522 | 17.49292 | 39099 ft | 447 kts | 293° |
| 2026-05-04 07:44 | 47.74917 | 17.40766 | 39096 ft | 447 kts | 293° |
| 2026-05-04 07:45 | 47.77292 | 17.32281 | 39087 ft | 447 kts | 292° |
| 2026-05-04 07:45 | 47.79680 | 17.23719 | 39086 ft | 446 kts | 292° |
| 2026-05-04 07:46 | 47.82043 | 17.15219 | 39079 ft | 446 kts | 292° |
| 2026-05-04 07:46 | 47.84441 | 17.06695 | 39077 ft | 446 kts | 293° |
| 2026-05-04 07:47 | 47.86917 | 16.98260 | 39079 ft | 445 kts | 294° |
| 2026-05-04 07:49 | 47.96759 | 16.64454 | 39052 ft | 444 kts | 293° |
| 2026-05-04 07:49 | 47.99198 | 16.55969 | 39052 ft | 444 kts | 293° |
| 2026-05-04 07:50 | 48.01619 | 16.47525 | 39058 ft | 444 kts | 292° |
| 2026-05-04 07:50 | 48.04050 | 16.39010 | 39045 ft | 445 kts | 292° |
| 2026-05-04 07:51 | 48.06476 | 16.30485 | 39024 ft | 445 kts | 292° |
| 2026-05-04 07:51 | 48.08898 | 16.21944 | 39039 ft | 445 kts | 292° |
| 2026-05-04 07:52 | 48.11299 | 16.13447 | 39040 ft | 445 kts | 292° |
| 2026-05-04 07:52 | 48.13711 | 16.04878 | 39028 ft | 446 kts | 292° |
| 2026-05-04 07:54 | 48.23280 | 15.70585 | 39040 ft | 446 kts | 291° |
| 2026-05-04 07:55 | 48.25666 | 15.61956 | 39017 ft | 445 kts | 291° |
| 2026-05-04 07:55 | 48.28026 | 15.53392 | 39022 ft | 444 kts | 291° |
| 2026-05-04 07:56 | 48.30367 | 15.44864 | 39041 ft | 443 kts | 291° |
| 2026-05-04 07:56 | 48.32709 | 15.36300 | 39017 ft | 442 kts | 291° |
| 2026-05-04 07:57 | 48.35043 | 15.27737 | 39042 ft | 441 kts | 291° |
| 2026-05-04 07:57 | 48.37349 | 15.19247 | 39040 ft | 440 kts | 291° |
| 2026-05-04 07:58 | 48.39650 | 15.10743 | 39023 ft | 440 kts | 291° |
| 2026-05-04 07:58 | 48.41953 | 15.02202 | 39030 ft | 440 kts | 290° |
| 2026-05-04 07:59 | 48.44255 | 14.93630 | 39035 ft | 440 kts | 290° |
| 2026-05-04 07:59 | 48.46533 | 14.85115 | 39030 ft | 440 kts | 290° |
| 2026-05-04 08:00 | 48.48825 | 14.76520 | 39036 ft | 440 kts | 290° |
| 2026-05-04 08:02 | 48.57906 | 14.42147 | 39030 ft | 443 kts | 289° |
| 2026-05-04 08:02 | 48.60176 | 14.33475 | 39029 ft | 443 kts | 289° |
| 2026-05-04 08:03 | 48.62426 | 14.24846 | 39031 ft | 443 kts | 289° |
| 2026-05-04 08:03 | 48.64685 | 14.16149 | 39035 ft | 443 kts | 289° |
| 2026-05-04 08:04 | 48.66919 | 14.07517 | 39036 ft | 443 kts | 289° |
| 2026-05-04 08:04 | 48.69163 | 13.98811 | 39034 ft | 442 kts | 289° |
| 2026-05-04 08:05 | 48.71397 | 13.90113 | 39042 ft | 442 kts | 289° |
| 2026-05-04 08:05 | 48.73612 | 13.81453 | 39042 ft | 443 kts | 289° |
| 2026-05-04 08:06 | 48.75833 | 13.72746 | 39046 ft | 443 kts | 288° |
| 2026-05-04 08:06 | 48.78003 | 13.63980 | 39049 ft | 443 kts | 287° |
| 2026-05-04 08:08 | 48.86349 | 13.28766 | 39044 ft | 445 kts | 287° |
| 2026-05-04 08:11 | 48.95354 | 12.90303 | 39046 ft | 446 kts | 287° |
| 2026-05-04 08:11 | 48.98440 | 12.76963 | 39045 ft | 447 kts | 287° |
| 2026-05-04 08:12 | 49.00498 | 12.68018 | 39040 ft | 447 kts | 287° |
| 2026-05-04 08:12 | 49.02537 | 12.59119 | 39040 ft | 447 kts | 287° |
| 2026-05-04 08:13 | 49.04587 | 12.50138 | 39042 ft | 447 kts | 287° |
| 2026-05-04 08:13 | 49.06618 | 12.41201 | 39043 ft | 448 kts | 287° |
| 2026-05-04 08:14 | 49.08654 | 12.32199 | 39043 ft | 448 kts | 287° |
| 2026-05-04 08:16 | 49.16710 | 11.96215 | 39049 ft | 447 kts | 286° |
| 2026-05-04 08:16 | 49.18696 | 11.87245 | 39050 ft | 446 kts | 286° |
| 2026-05-04 08:17 | 49.20683 | 11.78231 | 39055 ft | 446 kts | 286° |
| 2026-05-04 08:17 | 49.22651 | 11.69270 | 39048 ft | 446 kts | 286° |
| 2026-05-04 08:19 | 49.30464 | 11.33296 | 39046 ft | 444 kts | 285° |
| 2026-05-04 08:20 | 49.32388 | 11.24339 | 39059 ft | 444 kts | 285° |
| 2026-05-04 08:20 | 49.34316 | 11.15323 | 39042 ft | 443 kts | 285° |
| 2026-05-04 08:21 | 49.36220 | 11.06382 | 39041 ft | 443 kts | 285° |
| 2026-05-04 08:21 | 49.38129 | 10.97386 | 39050 ft | 443 kts | 285° |
| 2026-05-04 08:22 | 49.40525 | 10.88625 | 39069 ft | 446 kts | 293° |
| 2026-05-04 08:24 | 49.51636 | 10.54520 | 39036 ft | 446 kts | 293° |
| 2026-05-04 08:24 | 49.54385 | 10.45934 | 39035 ft | 446 kts | 293° |
| 2026-05-04 08:25 | 49.57113 | 10.37385 | 39038 ft | 446 kts | 292° |
| 2026-05-04 08:25 | 49.59850 | 10.28781 | 39037 ft | 445 kts | 292° |
| 2026-05-04 08:27 | 49.70663 | 9.94496 | 39037 ft | 444 kts | 292° |
| 2026-05-04 08:28 | 49.73353 | 9.85892 | 39036 ft | 443 kts | 292° |
| 2026-05-04 08:28 | 49.76012 | 9.77360 | 39042 ft | 443 kts | 291° |
| 2026-05-04 08:29 | 49.78686 | 9.68745 | 39038 ft | 443 kts | 291° |
| 2026-05-04 08:31 | 49.89286 | 9.34306 | 39031 ft | 442 kts | 291° |
| 2026-05-04 08:33 | 49.98531 | 9.03870 | 39028 ft | 444 kts | 290° |